Time,TemperatureF,DewpointF,PressureIn,WindDirection,WindDirectionDegrees,WindSpeedMPH,WindSpeedGustMPH,Humidity,HourlyPrecipIn,Conditions,Clouds,dailyrainin,SoftwareType,DateUTC
2013-03-18 00:00:00,56.8,32.2,27.05,SSW,202,2.7,5.4,39,0.00,,---,0.00,VWS V14.01,2013-03-18 04:00:00,
2013-03-18 00:02:00,57.0,31.7,27.08,SSW,202,4.3,5.6,38,0.00,,---,0.00,VWS V14.01,2013-03-18 04:02:00,
2013-03-18 00:04:00,57.4,32.0,27.08,SW,225,2.2,4.7,38,0.00,,---,0.00,VWS V14.01,2013-03-18 04:04:00,
2013-03-18 00:05:00,57.6,31.5,27.08,East,90,3.4,4.9,37,0.00,,---,0.00,VWS V14.01,2013-03-18 04:05:00,
2013-03-18 00:06:00,57.6,31.5,27.08,ENE,68,3.8,4.9,37,0.00,,---,0.00,VWS V14.01,2013-03-18 04:06:00,
2013-03-18 00:08:00,57.6,32.2,27.08,South,180,2.2,3.8,38,0.00,,---,0.00,VWS V14.01,2013-03-18 04:08:00,
2013-03-18 00:10:00,57.7,31.7,27.08,SE,135,5.4,8.7,37,0.00,,---,0.00,VWS V14.01,2013-03-18 04:10:00,
2013-03-18 00:12:00,57.9,31.8,27.08,NNE,22,7.2,8.7,37,0.00,,---,0.00,VWS V14.01,2013-03-18 04:12:00,
2013-03-18 00:14:00,57.9,31.8,27.08,East,90,2.9,7.2,37,0.00,,---,0.00,VWS V14.01,2013-03-18 04:14:00,
2013-03-18 00:15:00,57.9,31.8,27.08,WSW,248,1.1,2.9,37,0.00,,---,0.00,VWS V14.01,2013-03-18 04:15:00,
2013-03-18 00:16:00,57.9,31.8,27.08,WSW,248,1.1,2.9,37,0.00,,---,0.00,VWS V14.01,2013-03-18 04:16:00,
2013-03-18 00:18:00,57.9,31.8,27.05,WNW,292,3.6,3.6,37,0.00,,---,0.00,VWS V14.01,2013-03-18 04:18:00,
2013-03-18 00:20:00,57.9,31.8,27.05,ESE,112,1.6,2.9,37,0.00,,---,0.00,VWS V14.01,2013-03-18 04:20:00,
2013-03-18 00:22:00,57.9,31.8,27.05,SSE,158,1.3,2.9,37,0.00,,---,0.00,VWS V14.01,2013-03-18 04:22:00,
2013-03-18 00:24:00,57.9,31.8,27.05,ESE,112,3.1,3.4,37,0.00,,---,0.00,VWS V14.01,2013-03-18 04:24:00,
2013-03-18 00:25:00,57.9,31.8,27.05,SSW,202,2.0,4.0,37,0.00,,---,0.00,VWS V14.01,2013-03-18 04:25:00,
2013-03-18 00:26:00,57.9,31.8,27.05,WSW,248,2.7,4.0,37,0.00,,---,0.00,VWS V14.01,2013-03-18 04:26:00,
2013-03-18 00:28:00,57.9,31.8,27.05,SSE,158,6.3,6.3,37,0.00,,---,0.00,VWS V14.01,2013-03-18 04:28:00,
2013-03-18 00:30:00,57.9,31.8,27.05,ESE,112,8.5,8.5,37,0.00,,---,0.00,VWS V14.01,2013-03-18 04:30:00,
2013-03-18 00:32:00,57.9,31.1,27.08,ESE,112,3.6,8.5,36,0.00,,---,0.00,VWS V14.01,2013-03-18 04:32:00,
2013-03-18 00:34:00,57.9,31.1,27.08,WNW,292,2.0,3.6,36,0.00,,---,0.00,VWS V14.01,2013-03-18 04:34:00,
2013-03-18 00:35:00,57.9,31.1,27.08,SE,135,1.3,2.5,36,0.00,,---,0.00,VWS V14.01,2013-03-18 04:35:00,
2013-03-18 00:36:00,57.9,31.1,27.08,SE,135,1.1,2.5,36,0.00,,---,0.00,VWS V14.01,2013-03-18 04:36:00,
2013-03-18 00:38:00,57.9,31.1,27.08,ESE,112,2.5,2.5,36,0.00,,---,0.00,VWS V14.01,2013-03-18 04:38:00,
2013-03-18 00:40:00,57.6,31.5,27.08,SSE,158,1.6,1.6,37,0.00,,---,0.00,VWS V14.01,2013-03-18 04:40:00,
2013-03-18 00:42:00,57.6,31.5,27.08,SSW,202,2.0,2.0,37,0.00,,---,0.00,VWS V14.01,2013-03-18 04:42:00,
2013-03-18 00:44:00,57.4,31.3,27.08,WSW,248,1.1,2.0,37,0.00,,---,0.00,VWS V14.01,2013-03-18 04:44:00,
2013-03-18 00:45:00,57.2,31.2,27.08,SSW,202,3.8,6.0,37,0.00,,---,0.00,VWS V14.01,2013-03-18 04:45:00,
2013-03-18 00:46:00,57.2,31.2,27.08,SE,135,3.4,6.0,37,0.00,,---,0.00,VWS V14.01,2013-03-18 04:46:00,
2013-03-18 00:48:00,57.2,31.2,27.08,NE,45,2.5,4.0,37,0.00,,---,0.00,VWS V14.01,2013-03-18 04:48:00,
2013-03-18 00:50:00,57.2,31.2,27.08,SE,135,1.6,1.6,37,0.00,,---,0.00,VWS V14.01,2013-03-18 04:50:00,
2013-03-18 00:52:00,57.2,31.2,27.08,WNW,292,2.2,2.9,37,0.00,,---,0.00,VWS V14.01,2013-03-18 04:52:00,
2013-03-18 00:54:00,57.2,31.2,27.08,SE,135,2.9,2.9,37,0.00,,---,0.00,VWS V14.01,2013-03-18 04:54:00,
2013-03-18 00:55:00,57.2,31.2,27.08,NE,45,2.9,2.9,37,0.00,,---,0.00,VWS V14.01,2013-03-18 04:55:00,
2013-03-18 00:56:00,57.2,31.2,27.08,NE,45,2.9,2.9,37,0.00,,---,0.00,VWS V14.01,2013-03-18 04:56:00,
2013-03-18 00:58:00,57.2,31.2,27.08,SW,225,2.5,4.3,37,0.00,,---,0.00,VWS V14.01,2013-03-18 04:58:00,
2013-03-18 01:00:00,57.4,31.3,27.08,WSW,248,4.9,7.8,37,0.00,,---,0.00,VWS V14.01,2013-03-18 05:00:00,
2013-03-18 01:02:00,57.4,31.3,27.08,SW,225,4.7,7.8,37,0.00,,---,0.00,VWS V14.01,2013-03-18 05:02:00,
2013-03-18 01:04:00,57.4,31.3,27.05,SW,225,1.3,4.7,37,0.00,,---,0.00,VWS V14.01,2013-03-18 05:04:00,
2013-03-18 01:05:00,57.6,31.5,27.05,East,90,2.9,2.9,37,0.00,,---,0.00,VWS V14.01,2013-03-18 05:05:00,
2013-03-18 01:06:00,57.6,31.5,27.05,SE,135,2.5,2.9,37,0.00,,---,0.00,VWS V14.01,2013-03-18 05:06:00,
2013-03-18 01:08:00,57.4,32.0,27.05,SSE,158,2.9,5.6,38,0.00,,---,0.00,VWS V14.01,2013-03-18 05:08:00,
2013-03-18 01:10:00,57.4,32.0,27.05,SSW,202,1.3,2.7,38,0.00,,---,0.00,VWS V14.01,2013-03-18 05:10:00,
2013-03-18 01:12:00,57.4,32.0,27.05,SE,135,2.0,3.1,38,0.00,,---,0.00,VWS V14.01,2013-03-18 05:12:00,
2013-03-18 01:14:00,57.4,32.0,27.05,ESE,112,2.0,4.0,38,0.00,,---,0.00,VWS V14.01,2013-03-18 05:14:00,
2013-03-18 01:15:00,57.4,32.0,27.05,NW,315,3.8,7.8,38,0.00,,---,0.00,VWS V14.01,2013-03-18 05:15:00,
2013-03-18 01:16:00,57.4,32.0,27.05,WNW,292,3.8,7.8,38,0.00,,---,0.00,VWS V14.01,2013-03-18 05:16:00,
2013-03-18 01:18:00,57.4,32.0,27.05,WNW,292,3.8,3.8,38,0.00,,---,0.00,VWS V14.01,2013-03-18 05:18:00,
2013-03-18 01:20:00,57.6,31.5,27.05,SE,135,4.0,5.4,37,0.00,,---,0.00,VWS V14.01,2013-03-18 05:20:00,
2013-03-18 01:22:00,57.6,31.5,27.05,South,180,5.4,6.5,37,0.00,,---,0.00,VWS V14.01,2013-03-18 05:22:00,
2013-03-18 01:24:00,57.6,31.5,27.05,South,180,3.8,5.4,37,0.00,,---,0.00,VWS V14.01,2013-03-18 05:24:00,
2013-03-18 01:25:00,57.6,31.5,27.05,WNW,292,2.2,4.9,37,0.00,,---,0.00,VWS V14.01,2013-03-18 05:25:00,
2013-03-18 01:26:00,57.6,31.5,27.05,WNW,292,2.7,4.9,37,0.00,,---,0.00,VWS V14.01,2013-03-18 05:26:00,
2013-03-18 01:28:00,57.6,31.5,27.05,SE,135,1.6,2.9,37,0.00,,---,0.00,VWS V14.01,2013-03-18 05:28:00,
2013-03-18 01:30:00,57.6,31.5,27.05,SSW,202,3.6,5.4,37,0.00,,---,0.00,VWS V14.01,2013-03-18 05:30:00,
2013-03-18 01:32:00,57.6,31.5,27.05,WSW,248,3.4,5.8,37,0.00,,---,0.00,VWS V14.01,2013-03-18 05:32:00,
2013-03-18 01:34:00,57.6,31.5,27.05,SE,135,5.4,6.5,37,0.00,,---,0.00,VWS V14.01,2013-03-18 05:34:00,
2013-03-18 01:35:00,57.4,31.3,27.05,West,270,5.8,9.6,37,0.00,,---,0.00,VWS V14.01,2013-03-18 05:35:00,
2013-03-18 01:36:00,57.4,31.3,27.05,WSW,248,2.7,9.6,37,0.00,,---,0.00,VWS V14.01,2013-03-18 05:36:00,
2013-03-18 01:38:00,57.4,31.3,27.05,ESE,112,5.6,9.2,37,0.00,,---,0.00,VWS V14.01,2013-03-18 05:38:00,
2013-03-18 01:40:00,57.4,31.3,27.05,SSW,202,2.5,4.0,37,0.00,,---,0.00,VWS V14.01,2013-03-18 05:40:00,
2013-03-18 01:42:00,57.4,31.3,27.05,SE,135,2.5,4.0,37,0.00,,---,0.00,VWS V14.01,2013-03-18 05:42:00,
2013-03-18 01:44:00,57.4,31.3,27.05,SSE,158,4.0,4.3,37,0.00,,---,0.00,VWS V14.01,2013-03-18 05:44:00,
2013-03-18 01:45:00,57.2,31.2,27.05,WSW,248,3.8,6.0,37,0.00,,---,0.00,VWS V14.01,2013-03-18 05:45:00,
2013-03-18 01:46:00,57.2,31.2,27.05,SSE,158,2.7,6.0,37,0.00,,---,0.00,VWS V14.01,2013-03-18 05:46:00,
2013-03-18 01:48:00,57.2,31.2,27.05,SSW,202,2.7,8.7,37,0.00,,---,0.00,VWS V14.01,2013-03-18 05:48:00,
2013-03-18 01:50:00,57.2,31.2,27.05,NNE,22,3.1,4.9,37,0.00,,---,0.00,VWS V14.01,2013-03-18 05:50:00,
2013-03-18 01:52:00,57.2,31.2,27.05,SW,225,3.1,5.8,37,0.00,,---,0.00,VWS V14.01,2013-03-18 05:52:00,
2013-03-18 01:54:00,57.0,31.7,27.05,WSW,248,2.7,4.0,38,0.00,,---,0.00,VWS V14.01,2013-03-18 05:54:00,
2013-03-18 01:55:00,57.0,31.7,27.05,South,180,3.1,4.9,38,0.00,,---,0.00,VWS V14.01,2013-03-18 05:55:00,
2013-03-18 01:56:00,57.0,31.7,27.05,South,180,3.1,4.9,38,0.00,,---,0.00,VWS V14.01,2013-03-18 05:56:00,
2013-03-18 01:58:00,57.0,31.7,27.05,South,180,4.7,4.7,38,0.00,,---,0.00,VWS V14.01,2013-03-18 05:58:00,
2013-03-18 02:00:00,56.8,30.9,27.05,WSW,248,4.9,6.0,37,0.00,,---,0.00,VWS V14.01,2013-03-18 06:00:00,
2013-03-18 02:02:00,56.8,30.9,27.05,SSW,202,4.0,6.5,37,0.00,,---,0.00,VWS V14.01,2013-03-18 06:02:00,
2013-03-18 02:04:00,57.0,31.0,27.05,SSE,158,8.7,8.7,37,0.00,,---,0.00,VWS V14.01,2013-03-18 06:04:00,
2013-03-18 02:05:00,57.0,31.0,27.05,SE,135,3.6,8.7,37,0.00,,---,0.00,VWS V14.01,2013-03-18 06:05:00,
2013-03-18 02:06:00,57.0,31.0,27.05,SSE,158,3.4,8.7,37,0.00,,---,0.00,VWS V14.01,2013-03-18 06:06:00,
2013-03-18 02:08:00,57.0,31.0,27.05,SE,135,10.3,10.3,37,0.00,,---,0.00,VWS V14.01,2013-03-18 06:08:00,
2013-03-18 02:10:00,57.0,31.0,27.05,SSE,158,4.7,4.7,37,0.00,,---,0.00,VWS V14.01,2013-03-18 06:10:00,
2013-03-18 02:12:00,56.8,30.9,27.05,WSW,248,6.5,6.5,37,0.00,,---,0.00,VWS V14.01,2013-03-18 06:12:00,
2013-03-18 02:14:00,57.0,31.0,27.05,ESE,112,3.8,6.5,37,0.00,,---,0.00,VWS V14.01,2013-03-18 06:14:00,
2013-03-18 02:15:00,56.8,30.9,27.05,West,270,2.2,7.6,37,0.00,,---,0.00,VWS V14.01,2013-03-18 06:15:00,
2013-03-18 02:16:00,56.8,30.9,27.05,SSE,158,3.4,7.6,37,0.00,,---,0.00,VWS V14.01,2013-03-18 06:16:00,
2013-03-18 02:18:00,56.8,30.9,27.08,East,90,1.3,4.0,37,0.00,,---,0.00,VWS V14.01,2013-03-18 06:18:00,
2013-03-18 02:20:00,56.7,30.7,27.08,East,90,1.6,2.0,37,0.00,,---,0.00,VWS V14.01,2013-03-18 06:20:00,
2013-03-18 02:22:00,56.7,30.7,27.08,WSW,248,3.4,9.6,37,0.00,,---,0.00,VWS V14.01,2013-03-18 06:22:00,
2013-03-18 02:24:00,56.7,30.7,27.08,East,90,3.6,10.1,37,0.00,,---,0.00,VWS V14.01,2013-03-18 06:24:00,
2013-03-18 02:25:00,56.7,30.7,27.08,SW,225,2.2,5.6,37,0.00,,---,0.00,VWS V14.01,2013-03-18 06:25:00,
2013-03-18 02:26:00,56.7,30.7,27.08,SE,135,1.6,5.6,37,0.00,,---,0.00,VWS V14.01,2013-03-18 06:26:00,
2013-03-18 02:28:00,56.7,30.7,27.08,SSW,202,2.9,3.6,37,0.00,,---,0.00,VWS V14.01,2013-03-18 06:28:00,
2013-03-18 02:30:00,56.7,30.7,27.08,SE,135,3.1,4.0,37,0.00,,---,0.00,VWS V14.01,2013-03-18 06:30:00,
2013-03-18 02:32:00,56.5,30.5,27.08,WSW,248,2.2,4.0,37,0.00,,---,0.00,VWS V14.01,2013-03-18 06:32:00,
2013-03-18 02:34:00,56.5,30.5,27.08,WSW,248,4.0,4.0,37,0.00,,---,0.00,VWS V14.01,2013-03-18 06:34:00,
2013-03-18 02:35:00,56.5,30.5,27.08,ESE,112,2.9,5.6,37,0.00,,---,0.00,VWS V14.01,2013-03-18 06:35:00,
2013-03-18 02:36:00,56.5,30.5,27.08,South,180,1.3,5.6,37,0.00,,---,0.00,VWS V14.01,2013-03-18 06:36:00,
2013-03-18 02:38:00,56.3,31.0,27.08,ESE,112,5.6,5.6,38,0.00,,---,0.00,VWS V14.01,2013-03-18 06:38:00,
2013-03-18 02:40:00,56.5,31.2,27.08,SSW,202,3.4,4.9,38,0.00,,---,0.00,VWS V14.01,2013-03-18 06:40:00,
2013-03-18 02:42:00,56.3,31.0,27.08,SSE,158,1.3,4.9,38,0.00,,---,0.00,VWS V14.01,2013-03-18 06:42:00,
2013-03-18 02:44:00,56.3,30.4,27.08,East,90,6.0,6.0,37,0.00,,---,0.00,VWS V14.01,2013-03-18 06:44:00,
2013-03-18 02:45:00,56.3,30.4,27.08,SSW,202,4.9,6.0,37,0.00,,---,0.00,VWS V14.01,2013-03-18 06:45:00,
2013-03-18 02:46:00,56.3,30.4,27.08,SE,135,3.4,6.0,37,0.00,,---,0.00,VWS V14.01,2013-03-18 06:46:00,
2013-03-18 02:48:00,56.3,30.4,27.05,East,90,2.2,4.0,37,0.00,,---,0.00,VWS V14.01,2013-03-18 06:48:00,
2013-03-18 02:50:00,56.1,30.9,27.05,SSW,202,4.9,4.9,38,0.00,,---,0.00,VWS V14.01,2013-03-18 06:50:00,
2013-03-18 02:52:00,56.1,30.9,27.05,WSW,248,4.3,6.5,38,0.00,,---,0.00,VWS V14.01,2013-03-18 06:52:00,
2013-03-18 02:54:00,56.3,31.0,27.05,NNE,22,2.2,6.3,38,0.00,,---,0.00,VWS V14.01,2013-03-18 06:54:00,
2013-03-18 02:55:00,56.3,31.0,27.05,ESE,112,4.0,7.2,38,0.00,,---,0.00,VWS V14.01,2013-03-18 06:55:00,
2013-03-18 02:56:00,56.3,30.4,27.05,ENE,68,4.9,7.2,37,0.00,,---,0.00,VWS V14.01,2013-03-18 06:56:00,
2013-03-18 02:58:00,56.3,31.0,27.05,SE,135,3.1,4.9,38,0.00,,---,0.00,VWS V14.01,2013-03-18 06:58:00,
2013-03-18 03:00:00,55.9,30.7,27.05,South,180,2.9,6.0,38,0.00,,---,0.00,VWS V14.01,2013-03-18 07:00:00,
2013-03-18 03:02:00,56.1,30.9,27.05,East,90,2.0,6.0,38,0.00,,---,0.00,VWS V14.01,2013-03-18 07:02:00,
2013-03-18 03:04:00,55.9,30.7,27.05,WSW,248,0.9,2.2,38,0.00,,---,0.00,VWS V14.01,2013-03-18 07:04:00,
2013-03-18 03:05:00,55.9,30.7,27.05,SE,135,3.1,3.4,38,0.00,,---,0.00,VWS V14.01,2013-03-18 07:05:00,
2013-03-18 03:06:00,55.9,30.7,27.05,South,180,2.7,3.4,38,0.00,,---,0.00,VWS V14.01,2013-03-18 07:06:00,
2013-03-18 03:08:00,55.8,31.2,27.05,East,90,3.6,3.6,39,0.00,,---,0.00,VWS V14.01,2013-03-18 07:08:00,
2013-03-18 03:10:00,55.8,31.2,27.05,SSE,158,2.9,2.9,39,0.00,,---,0.00,VWS V14.01,2013-03-18 07:10:00,
2013-03-18 03:12:00,55.6,31.0,27.05,ESE,112,2.0,2.9,39,0.00,,---,0.00,VWS V14.01,2013-03-18 07:12:00,
2013-03-18 03:14:00,55.4,30.9,27.05,ENE,68,6.7,6.7,39,0.00,,---,0.00,VWS V14.01,2013-03-18 07:14:00,
2013-03-18 03:15:00,55.4,30.9,27.05,ENE,68,4.7,6.7,39,0.00,,---,0.00,VWS V14.01,2013-03-18 07:15:00,
2013-03-18 03:16:00,55.4,30.9,27.05,ESE,112,1.6,6.7,39,0.00,,---,0.00,VWS V14.01,2013-03-18 07:16:00,
2013-03-18 03:18:00,55.2,30.7,27.05,ESE,112,2.0,2.9,39,0.00,,---,0.00,VWS V14.01,2013-03-18 07:18:00,
2013-03-18 03:20:00,55.0,31.8,27.05,SE,135,3.4,4.0,41,0.00,,---,0.00,VWS V14.01,2013-03-18 07:20:00,
2013-03-18 03:22:00,55.0,31.8,27.05,ESE,112,2.7,4.0,41,0.00,,---,0.00,VWS V14.01,2013-03-18 07:22:00,
2013-03-18 03:24:00,55.0,31.8,27.05,SSE,158,4.0,4.7,41,0.00,,---,0.00,VWS V14.01,2013-03-18 07:24:00,
2013-03-18 03:25:00,55.0,31.2,27.05,SE,135,1.6,4.5,40,0.00,,---,0.00,VWS V14.01,2013-03-18 07:25:00,
2013-03-18 03:26:00,55.2,31.3,27.05,SSE,158,1.1,4.5,40,0.00,,---,0.00,VWS V14.01,2013-03-18 07:26:00,
2013-03-18 03:28:00,55.2,31.3,27.05,NNE,22,0.9,2.5,40,0.00,,---,0.00,VWS V14.01,2013-03-18 07:28:00,
2013-03-18 03:30:00,55.2,31.3,27.05,WSW,248,2.5,3.8,40,0.00,,---,0.00,VWS V14.01,2013-03-18 07:30:00,
2013-03-18 03:34:00,55.2,30.7,27.05,ESE,112,3.4,3.8,39,0.00,,---,0.00,VWS V14.01,2013-03-18 07:34:00,
2013-03-18 03:35:00,55.0,30.5,27.05,ESE,112,2.0,3.4,39,0.00,,---,0.00,VWS V14.01,2013-03-18 07:35:00,
2013-03-18 03:36:00,55.0,30.5,27.05,ESE,112,2.9,3.4,39,0.00,,---,0.00,VWS V14.01,2013-03-18 07:36:00,
2013-03-18 03:38:00,55.0,30.5,27.05,ENE,68,4.0,4.0,39,0.00,,---,0.00,VWS V14.01,2013-03-18 07:38:00,
2013-03-18 03:40:00,54.9,31.0,27.05,South,180,1.3,1.6,40,0.00,,---,0.00,VWS V14.01,2013-03-18 07:40:00,
2013-03-18 03:42:00,54.9,31.0,27.05,ESE,112,1.3,1.6,40,0.00,,---,0.00,VWS V14.01,2013-03-18 07:42:00,
2013-03-18 03:44:00,54.9,31.0,27.05,ESE,112,2.5,2.7,40,0.00,,---,0.00,VWS V14.01,2013-03-18 07:44:00,
2013-03-18 03:45:00,54.9,31.6,27.05,SSW,202,3.8,3.8,41,0.00,,---,0.00,VWS V14.01,2013-03-18 07:45:00,
2013-03-18 03:48:00,54.7,31.5,27.05,ESE,112,2.0,3.8,41,0.00,,---,0.00,VWS V14.01,2013-03-18 07:48:00,
2013-03-18 03:50:00,54.9,31.6,27.05,ENE,68,3.6,7.4,41,0.00,,---,0.00,VWS V14.01,2013-03-18 07:50:00,
2013-03-18 03:52:00,54.9,31.6,27.05,ENE,68,5.4,7.4,41,0.00,,---,0.00,VWS V14.01,2013-03-18 07:52:00,
2013-03-18 03:55:00,54.9,31.6,27.05,ESE,112,2.0,6.9,41,0.00,,---,0.00,VWS V14.01,2013-03-18 07:55:00,
2013-03-18 03:56:00,54.9,31.6,27.05,ESE,112,3.1,6.9,41,0.00,,---,0.00,VWS V14.01,2013-03-18 07:56:00,
2013-03-18 03:58:00,55.0,31.8,27.05,East,90,2.0,3.4,41,0.00,,---,0.00,VWS V14.01,2013-03-18 07:58:00,
2013-03-18 04:00:00,55.0,31.8,27.05,East,90,2.0,4.3,41,0.00,,---,0.00,VWS V14.01,2013-03-18 08:00:00,
2013-03-18 04:02:00,55.0,31.8,27.05,ESE,112,5.8,5.8,41,0.00,,---,25.54,VWS V14.01,2013-03-18 08:02:00,
2013-03-18 04:04:00,55.0,31.8,27.08,East,90,4.7,5.8,41,0.00,,---,25.54,VWS V14.01,2013-03-18 08:04:00,
2013-03-18 04:05:00,55.0,31.8,27.08,East,90,3.1,4.9,41,0.00,,---,25.54,VWS V14.01,2013-03-18 08:05:00,
2013-03-18 04:06:00,55.0,31.8,27.08,ESE,112,4.7,4.9,41,0.00,,---,25.54,VWS V14.01,2013-03-18 08:06:00,
2013-03-18 04:08:00,54.9,31.6,27.08,East,90,4.9,5.6,41,0.00,,---,25.54,VWS V14.01,2013-03-18 08:08:00,
2013-03-18 04:10:00,54.7,31.5,27.08,ENE,68,5.6,7.4,41,0.00,,---,25.54,VWS V14.01,2013-03-18 08:10:00,
2013-03-18 04:12:00,54.5,31.9,27.08,ESE,112,2.7,7.4,42,0.00,,---,25.54,VWS V14.01,2013-03-18 08:12:00,
2013-03-18 04:14:00,54.5,31.3,27.08,ESE,112,4.0,6.3,41,0.00,,---,25.54,VWS V14.01,2013-03-18 08:14:00,
2013-03-18 04:15:00,54.5,31.3,27.08,East,90,3.8,4.7,41,0.00,,---,25.54,VWS V14.01,2013-03-18 08:15:00,
2013-03-18 04:16:00,54.5,31.3,27.08,ESE,112,2.9,4.7,41,0.00,,---,25.54,VWS V14.01,2013-03-18 08:16:00,
2013-03-18 04:18:00,54.3,31.1,27.05,East,90,2.5,4.9,41,0.00,,---,25.54,VWS V14.01,2013-03-18 08:18:00,
2013-03-18 04:20:00,54.1,31.0,27.05,ESE,112,3.8,3.8,41,0.00,,---,25.54,VWS V14.01,2013-03-18 08:20:00,
2013-03-18 04:22:00,54.1,31.0,27.05,SE,135,2.7,3.8,41,0.00,,---,25.54,VWS V14.01,2013-03-18 08:22:00,
2013-03-18 04:24:00,54.1,31.0,27.05,ESE,112,4.0,5.4,41,0.00,,---,25.54,VWS V14.01,2013-03-18 08:24:00,
2013-03-18 04:25:00,54.0,30.8,27.05,SE,135,2.5,5.8,41,0.00,,---,25.54,VWS V14.01,2013-03-18 08:25:00,
2013-03-18 04:26:00,54.0,32.0,27.05,East,90,2.5,5.8,43,0.00,,---,25.54,VWS V14.01,2013-03-18 08:26:00,
2013-03-18 04:28:00,54.0,31.4,27.05,ESE,112,2.2,4.7,42,0.00,,---,25.54,VWS V14.01,2013-03-18 08:28:00,
2013-03-18 04:30:00,54.0,32.0,27.05,SE,135,2.7,4.3,43,0.00,,---,25.54,VWS V14.01,2013-03-18 08:30:00,
2013-03-18 04:32:00,54.0,32.0,27.05,SE,135,3.8,4.7,43,0.00,,---,25.54,VWS V14.01,2013-03-18 08:32:00,
2013-03-18 04:34:00,54.0,31.4,27.05,ENE,68,4.3,6.3,42,0.00,,---,25.54,VWS V14.01,2013-03-18 08:34:00,
2013-03-18 04:35:00,54.0,31.4,27.05,SE,135,2.9,4.3,42,0.00,,---,25.54,VWS V14.01,2013-03-18 08:35:00,
2013-03-18 04:36:00,54.0,31.4,27.05,SE,135,2.9,4.3,42,0.00,,---,25.54,VWS V14.01,2013-03-18 08:36:00,
2013-03-18 04:38:00,54.0,31.4,27.05,ESE,112,1.6,2.9,42,0.00,,---,25.54,VWS V14.01,2013-03-18 08:38:00,
2013-03-18 04:40:00,54.0,30.8,27.05,South,180,6.0,6.0,41,0.00,,---,25.54,VWS V14.01,2013-03-18 08:40:00,
2013-03-18 04:42:00,53.8,31.8,27.05,SE,135,5.4,6.0,43,0.00,,---,25.54,VWS V14.01,2013-03-18 08:42:00,
2013-03-18 04:44:00,53.8,31.8,27.05,ESE,112,3.8,5.4,43,0.00,,---,25.54,VWS V14.01,2013-03-18 08:44:00,
2013-03-18 04:45:00,53.6,31.7,27.05,East,90,4.0,4.0,43,0.00,,---,25.54,VWS V14.01,2013-03-18 08:45:00,
2013-03-18 04:46:00,53.6,31.7,27.05,ESE,112,4.7,4.7,43,0.00,,---,25.54,VWS V14.01,2013-03-18 08:46:00,
2013-03-18 04:48:00,53.4,31.5,27.05,SSE,158,2.7,4.7,43,0.00,,---,25.54,VWS V14.01,2013-03-18 08:48:00,
2013-03-18 04:50:00,53.2,31.3,27.05,SSE,158,0.9,2.0,43,0.00,,---,25.54,VWS V14.01,2013-03-18 08:50:00,
2013-03-18 04:52:00,53.2,31.9,27.05,SSE,158,2.7,2.7,44,0.00,,---,25.54,VWS V14.01,2013-03-18 08:52:00,
2013-03-18 04:54:00,53.1,31.7,27.05,SE,135,3.1,3.4,44,0.00,,---,25.54,VWS V14.01,2013-03-18 08:54:00,
2013-03-18 04:55:00,53.1,32.3,27.05,South,180,3.6,4.9,45,0.00,,---,25.54,VWS V14.01,2013-03-18 08:55:00,
2013-03-18 04:56:00,52.9,32.1,27.05,ESE,112,2.2,4.9,45,0.00,,---,25.54,VWS V14.01,2013-03-18 08:56:00,
2013-03-18 04:58:00,52.9,32.7,27.05,ESE,112,3.6,3.6,46,0.00,,---,25.54,VWS V14.01,2013-03-18 08:58:00,
2013-03-18 05:00:00,52.7,32.0,27.05,ESE,112,2.5,2.7,45,0.00,,---,25.54,VWS V14.01,2013-03-18 09:00:00,
2013-03-18 05:02:00,52.7,32.0,27.05,ESE,112,2.9,2.9,45,0.00,,---,25.54,VWS V14.01,2013-03-18 09:02:00,
2013-03-18 05:04:00,52.7,32.5,27.05,ESE,112,2.5,2.9,46,0.00,,---,25.54,VWS V14.01,2013-03-18 09:04:00,
2013-03-18 05:05:00,52.5,32.9,27.05,SE,135,2.7,3.6,47,0.00,,---,25.54,VWS V14.01,2013-03-18 09:05:00,
2013-03-18 05:06:00,52.5,32.9,27.05,South,180,2.5,3.6,47,0.00,,---,25.54,VWS V14.01,2013-03-18 09:06:00,
2013-03-18 05:08:00,52.2,32.6,27.05,ESE,112,2.0,3.1,47,0.00,,---,25.54,VWS V14.01,2013-03-18 09:08:00,
2013-03-18 05:10:00,52.2,32.6,27.05,SE,135,1.3,3.1,47,0.00,,---,25.54,VWS V14.01,2013-03-18 09:10:00,
2013-03-18 05:12:00,52.0,32.9,27.05,ESE,112,2.7,3.8,48,0.00,,---,25.54,VWS V14.01,2013-03-18 09:12:00,
2013-03-18 05:14:00,51.6,32.6,27.05,SSW,202,2.0,3.6,48,0.00,,---,25.54,VWS V14.01,2013-03-18 09:14:00,
2013-03-18 05:15:00,51.6,32.1,27.05,SW,225,1.3,2.0,47,0.00,,---,25.54,VWS V14.01,2013-03-18 09:15:00,
2013-03-18 05:16:00,51.6,32.1,27.05,SSW,202,1.1,2.0,47,0.00,,---,25.54,VWS V14.01,2013-03-18 09:16:00,
2013-03-18 05:18:00,51.1,32.1,27.05,WSW,248,2.2,2.7,48,0.00,,---,25.54,VWS V14.01,2013-03-18 09:18:00,
2013-03-18 05:20:00,50.9,32.4,27.05,WSW,248,2.2,2.2,49,0.00,,---,25.54,VWS V14.01,2013-03-18 09:20:00,
2013-03-18 05:22:00,50.9,32.4,27.05,West,270,3.1,3.1,49,0.00,,---,25.54,VWS V14.01,2013-03-18 09:22:00,
2013-03-18 05:24:00,50.4,32.4,27.05,WSW,248,3.1,3.8,50,0.00,,---,25.54,VWS V14.01,2013-03-18 09:24:00,
2013-03-18 05:25:00,50.4,32.9,27.05,ESE,112,2.2,3.4,51,0.00,,---,25.54,VWS V14.01,2013-03-18 09:25:00,
2013-03-18 05:26:00,50.4,32.9,27.05,ESE,112,2.2,3.4,51,0.00,,---,25.54,VWS V14.01,2013-03-18 09:26:00,
2013-03-18 05:28:00,50.5,33.6,27.05,SSE,158,2.7,3.6,52,0.00,,---,25.54,VWS V14.01,2013-03-18 09:28:00,
2013-03-18 05:30:00,50.7,33.3,27.05,SSW,202,0.0,0.9,51,0.00,,---,25.54,VWS V14.01,2013-03-18 09:30:00,
2013-03-18 05:32:00,50.7,33.8,27.05,WNW,292,1.1,1.6,52,0.00,,---,25.54,VWS V14.01,2013-03-18 09:32:00,
2013-03-18 05:34:00,50.7,33.8,27.05,South,180,0.0,2.0,52,0.00,,---,25.54,VWS V14.01,2013-03-18 09:34:00,
2013-03-18 05:35:00,50.7,33.8,27.05,SSE,158,2.7,3.8,52,0.00,,---,25.54,VWS V14.01,2013-03-18 09:35:00,
2013-03-18 05:36:00,50.7,33.8,27.05,SSE,158,2.5,3.8,52,0.00,,---,25.54,VWS V14.01,2013-03-18 09:36:00,
2013-03-18 05:38:00,50.9,33.9,27.05,SSE,158,3.1,3.1,52,0.00,,---,25.54,VWS V14.01,2013-03-18 09:38:00,
2013-03-18 05:40:00,50.7,33.3,27.05,SSE,158,2.9,2.9,51,0.00,,---,25.54,VWS V14.01,2013-03-18 09:40:00,
2013-03-18 05:42:00,50.7,33.3,27.05,ESE,112,2.7,5.6,51,0.00,,---,25.54,VWS V14.01,2013-03-18 09:42:00,
2013-03-18 05:44:00,50.7,33.8,27.05,South,180,1.6,3.4,52,0.00,,---,25.54,VWS V14.01,2013-03-18 09:44:00,
2013-03-18 05:45:00,50.7,33.3,27.05,SE,135,4.9,4.9,51,0.00,,---,25.54,VWS V14.01,2013-03-18 09:45:00,
2013-03-18 05:46:00,50.7,33.3,27.05,SE,135,4.7,4.9,51,0.00,,---,25.54,VWS V14.01,2013-03-18 09:46:00,
2013-03-18 05:48:00,50.5,33.1,27.02,ESE,112,1.6,4.7,51,0.00,,---,25.54,VWS V14.01,2013-03-18 09:48:00,
2013-03-18 05:50:00,50.2,32.8,27.02,South,180,2.7,2.7,51,0.00,,---,25.54,VWS V14.01,2013-03-18 09:50:00,
2013-03-18 05:52:00,50.2,32.8,27.02,WSW,248,2.5,2.7,51,0.00,,---,25.54,VWS V14.01,2013-03-18 09:52:00,
2013-03-18 05:54:00,50.0,32.1,27.02,SW,225,0.0,2.5,50,0.00,,---,25.54,VWS V14.01,2013-03-18 09:54:00,
2013-03-18 05:55:00,50.0,32.1,27.02,SSE,158,2.0,3.1,50,0.00,,---,25.54,VWS V14.01,2013-03-18 09:55:00,
2013-03-18 05:56:00,50.0,32.1,27.02,WSW,248,2.9,3.1,50,0.00,,---,25.54,VWS V14.01,2013-03-18 09:56:00,
2013-03-18 05:58:00,49.3,31.9,27.02,West,270,2.9,2.9,51,0.00,,---,25.54,VWS V14.01,2013-03-18 09:58:00,
2013-03-18 06:00:00,48.7,31.4,27.02,WNW,292,1.6,1.6,51,0.00,,---,25.54,VWS V14.01,2013-03-18 10:00:00,
2013-03-18 06:02:00,48.6,31.8,27.05,NW,315,1.6,2.2,52,0.00,,---,25.54,VWS V14.01,2013-03-18 10:02:00,
2013-03-18 06:04:00,48.4,31.6,27.05,NNW,338,1.3,1.6,52,0.00,,---,25.54,VWS V14.01,2013-03-18 10:04:00,
2013-03-18 06:05:00,47.8,32.5,27.05,WSW,248,2.0,2.2,55,0.00,,---,25.54,VWS V14.01,2013-03-18 10:05:00,
2013-03-18 06:06:00,47.8,32.5,27.05,West,270,2.5,2.5,55,0.00,,---,25.54,VWS V14.01,2013-03-18 10:06:00,
2013-03-18 06:08:00,47.7,32.8,27.05,WSW,248,2.5,3.1,56,0.00,,---,25.54,VWS V14.01,2013-03-18 10:08:00,
2013-03-18 06:10:00,47.5,32.6,27.05,WNW,292,0.9,2.0,56,0.00,,---,25.54,VWS V14.01,2013-03-18 10:10:00,
2013-03-18 06:12:00,47.3,32.0,27.05,WNW,292,1.3,2.0,55,0.00,,---,25.54,VWS V14.01,2013-03-18 10:12:00,
2013-03-18 06:14:00,46.9,32.5,27.05,WSW,248,2.9,3.4,57,0.00,,---,25.54,VWS V14.01,2013-03-18 10:14:00,
2013-03-18 06:15:00,46.8,33.2,27.05,WSW,248,2.7,2.9,59,0.00,,---,25.54,VWS V14.01,2013-03-18 10:15:00,
2013-03-18 06:16:00,46.8,33.2,27.05,WSW,248,2.9,2.9,59,0.00,,---,25.54,VWS V14.01,2013-03-18 10:16:00,
2013-03-18 06:18:00,46.6,33.5,27.05,West,270,2.9,2.9,60,0.00,,---,25.54,VWS V14.01,2013-03-18 10:18:00,
2013-03-18 06:20:00,46.4,33.7,27.05,ESE,112,0.0,1.1,61,0.00,,---,25.54,VWS V14.01,2013-03-18 10:20:00,
2013-03-18 06:22:00,46.4,33.7,27.05,West,270,2.2,2.2,61,0.00,,---,25.54,VWS V14.01,2013-03-18 10:22:00,
2013-03-18 06:24:00,46.2,34.3,27.05,West,270,0.0,2.5,63,0.00,,---,25.54,VWS V14.01,2013-03-18 10:24:00,
2013-03-18 06:25:00,46.2,33.5,27.05,West,270,0.0,0.0,61,0.00,,---,25.54,VWS V14.01,2013-03-18 10:25:00,
2013-03-18 06:26:00,46.2,33.5,27.05,West,270,0.0,0.0,61,0.00,,---,25.54,VWS V14.01,2013-03-18 10:26:00,
2013-03-18 06:28:00,46.0,33.4,27.05,WNW,292,2.0,2.0,61,0.00,,---,25.54,VWS V14.01,2013-03-18 10:28:00,
2013-03-18 06:30:00,45.7,34.2,27.05,WSW,248,2.2,2.5,64,0.00,,---,25.54,VWS V14.01,2013-03-18 10:30:00,
2013-03-18 06:32:00,45.7,34.6,27.05,WSW,248,2.0,2.5,65,0.00,,---,25.54,VWS V14.01,2013-03-18 10:32:00,
2013-03-18 06:34:00,45.7,34.6,27.05,West,270,1.1,2.7,65,0.00,,---,25.54,VWS V14.01,2013-03-18 10:34:00,
2013-03-18 06:35:00,45.5,34.0,27.05,West,270,2.5,2.5,64,0.00,,---,25.54,VWS V14.01,2013-03-18 10:35:00,
2013-03-18 06:36:00,45.7,34.6,27.05,West,270,2.5,2.5,65,0.00,,---,25.54,VWS V14.01,2013-03-18 10:36:00,
2013-03-18 06:38:00,45.5,35.9,27.05,West,270,2.9,3.8,69,0.00,,---,25.54,VWS V14.01,2013-03-18 10:38:00,
2013-03-18 06:40:00,45.5,35.9,27.05,WNW,292,2.9,2.9,69,0.00,,---,25.54,VWS V14.01,2013-03-18 10:40:00,
2013-03-18 06:42:00,45.5,36.3,27.05,NNW,338,2.5,2.9,70,0.00,,---,25.54,VWS V14.01,2013-03-18 10:42:00,
2013-03-18 06:44:00,45.7,36.8,27.05,SW,225,2.0,2.5,71,0.00,,---,25.54,VWS V14.01,2013-03-18 10:44:00,
2013-03-18 06:45:00,45.5,36.7,27.05,West,270,0.0,2.0,71,0.00,,---,25.54,VWS V14.01,2013-03-18 10:45:00,
2013-03-18 06:46:00,45.5,36.7,27.05,WNW,292,1.1,2.0,71,0.00,,---,25.54,VWS V14.01,2013-03-18 10:46:00,
2013-03-18 06:48:00,45.9,37.4,27.05,West,270,2.7,2.7,72,0.00,,---,25.54,VWS V14.01,2013-03-18 10:48:00,
2013-03-18 06:50:00,46.0,37.5,27.05,WNW,292,1.6,2.0,72,0.00,,---,25.54,VWS V14.01,2013-03-18 10:50:00,
2013-03-18 06:52:00,46.2,38.1,27.05,WSW,248,2.5,2.9,73,0.00,,---,25.54,VWS V14.01,2013-03-18 10:52:00,
2013-03-18 06:54:00,46.4,37.9,27.05,WSW,248,0.9,2.5,72,0.00,,---,25.54,VWS V14.01,2013-03-18 10:54:00,
2013-03-18 06:55:00,46.4,37.5,27.05,NE,45,0.0,0.9,71,0.00,,---,25.54,VWS V14.01,2013-03-18 10:55:00,
2013-03-18 06:56:00,46.4,37.5,27.05,NE,45,0.9,0.9,71,0.00,,---,25.54,VWS V14.01,2013-03-18 10:56:00,
2013-03-18 06:58:00,46.4,36.8,27.05,East,90,2.5,2.5,69,0.00,,---,25.54,VWS V14.01,2013-03-18 10:58:00,
2013-03-18 07:00:00,47.1,38.2,27.05,ESE,112,3.1,6.3,71,0.00,,---,25.54,VWS V14.01,2013-03-18 11:00:00,
2013-03-18 07:02:00,46.9,37.7,27.05,SE,135,3.6,6.3,70,0.00,,---,25.54,VWS V14.01,2013-03-18 11:02:00,
2013-03-18 07:04:00,47.1,37.5,27.05,ENE,68,2.2,4.9,69,0.00,,---,25.54,VWS V14.01,2013-03-18 11:04:00,
2013-03-18 07:05:00,47.3,37.3,27.05,SSW,202,2.5,3.4,68,0.00,,---,25.54,VWS V14.01,2013-03-18 11:05:00,
2013-03-18 07:06:00,47.7,38.0,27.05,SSW,202,2.2,3.4,69,0.00,,---,25.54,VWS V14.01,2013-03-18 11:06:00,
2013-03-18 07:08:00,48.0,38.0,27.05,South,180,1.6,2.7,68,0.00,,---,25.54,VWS V14.01,2013-03-18 11:08:00,
2013-03-18 07:10:00,48.0,37.6,27.05,NNW,338,1.6,2.2,67,0.00,,---,25.54,VWS V14.01,2013-03-18 11:10:00,
2013-03-18 07:12:00,48.0,37.2,27.05,ENE,68,0.0,2.2,66,0.00,,---,25.54,VWS V14.01,2013-03-18 11:12:00,
2013-03-18 07:14:00,48.4,37.2,27.05,SSW,202,2.7,2.9,65,0.00,,---,25.54,VWS V14.01,2013-03-18 11:14:00,
2013-03-18 07:15:00,48.4,37.2,27.05,WSW,248,1.6,2.7,65,0.00,,---,25.54,VWS V14.01,2013-03-18 11:15:00,
2013-03-18 07:16:00,48.4,37.2,27.05,WSW,248,3.4,3.4,65,0.00,,---,25.54,VWS V14.01,2013-03-18 11:16:00,
2013-03-18 07:18:00,48.4,36.8,27.05,SW,225,2.5,3.4,64,0.00,,---,25.54,VWS V14.01,2013-03-18 11:18:00,
2013-03-18 07:20:00,48.6,37.7,27.05,WNW,292,4.3,4.3,66,0.00,,---,25.54,VWS V14.01,2013-03-18 11:20:00,
2013-03-18 07:22:00,48.6,37.7,27.05,WSW,248,2.9,4.3,66,0.00,,---,25.54,VWS V14.01,2013-03-18 11:22:00,
2013-03-18 07:24:00,48.7,37.9,27.05,SSW,202,2.7,4.3,66,0.00,,---,25.54,VWS V14.01,2013-03-18 11:24:00,
2013-03-18 07:25:00,49.1,37.1,27.05,NNW,338,0.9,5.6,63,0.00,,---,25.54,VWS V14.01,2013-03-18 11:25:00,
2013-03-18 07:30:00,49.6,37.2,27.05,SSE,158,2.5,4.3,62,0.00,,---,25.54,VWS V14.01,2013-03-18 11:30:00,
2013-03-18 07:34:00,49.5,35.7,27.05,SE,135,6.3,8.7,59,0.00,,---,25.54,VWS V14.01,2013-03-18 11:34:00,
2013-03-18 07:35:00,49.3,36.0,27.05,South,180,6.3,6.3,60,0.00,,---,25.54,VWS V14.01,2013-03-18 11:35:00,
2013-03-18 07:36:00,49.1,35.4,27.05,SW,225,3.6,6.3,59,0.00,,---,25.54,VWS V14.01,2013-03-18 11:36:00,
2013-03-18 07:38:00,48.9,35.2,27.05,SSE,158,7.6,7.6,59,0.00,,---,25.54,VWS V14.01,2013-03-18 11:38:00,
2013-03-18 07:40:00,48.9,35.7,27.05,SSE,158,7.2,7.2,60,0.00,,---,25.54,VWS V14.01,2013-03-18 11:40:00,
2013-03-18 07:42:00,48.9,35.7,27.05,SE,135,5.4,7.2,60,0.00,,---,25.54,VWS V14.01,2013-03-18 11:42:00,
2013-03-18 07:44:00,48.7,35.1,27.05,ESE,112,4.9,8.5,59,0.00,,---,25.54,VWS V14.01,2013-03-18 11:44:00,
2013-03-18 07:45:00,48.7,35.5,27.05,ESE,112,6.3,6.3,60,0.00,,---,25.54,VWS V14.01,2013-03-18 11:45:00,
2013-03-18 07:46:00,48.7,35.5,27.05,ESE,112,6.3,6.3,60,0.00,,---,25.54,VWS V14.01,2013-03-18 11:46:00,
2013-03-18 07:48:00,48.7,35.1,27.08,SSE,158,4.7,6.3,59,0.00,,---,25.54,VWS V14.01,2013-03-18 11:48:00,
2013-03-18 07:50:00,48.6,34.9,27.08,SSE,158,5.4,7.6,59,0.00,,---,25.54,VWS V14.01,2013-03-18 11:50:00,
2013-03-18 07:52:00,48.6,35.3,27.08,ESE,112,4.9,7.6,60,0.00,,---,25.54,VWS V14.01,2013-03-18 11:52:00,
2013-03-18 07:54:00,48.4,34.7,27.08,SSE,158,4.7,6.3,59,0.00,,---,25.54,VWS V14.01,2013-03-18 11:54:00,
2013-03-18 07:55:00,48.4,35.2,27.08,SE,135,2.7,4.7,60,0.00,,---,25.54,VWS V14.01,2013-03-18 11:55:00,
2013-03-18 07:56:00,48.4,35.2,27.08,ESE,112,4.0,4.7,60,0.00,,---,25.54,VWS V14.01,2013-03-18 11:56:00,
2013-03-18 07:58:00,48.0,34.8,27.08,SSW,202,4.9,7.2,60,0.00,,---,25.54,VWS V14.01,2013-03-18 11:58:00,
2013-03-18 08:00:00,47.8,34.6,27.08,SSE,158,6.5,6.5,60,0.00,,---,25.54,VWS V14.01,2013-03-18 12:00:00,
2013-03-18 08:02:00,47.8,34.6,27.08,ENE,68,2.9,6.5,60,0.00,,---,25.54,VWS V14.01,2013-03-18 12:02:00,
2013-03-18 08:04:00,47.8,34.6,27.08,SE,135,4.3,4.3,60,0.00,,---,25.54,VWS V14.01,2013-03-18 12:04:00,
2013-03-18 08:05:00,47.8,35.5,27.08,SSE,158,3.8,6.0,62,0.00,,---,25.54,VWS V14.01,2013-03-18 12:05:00,
2013-03-18 08:06:00,47.8,35.9,27.08,SE,135,4.3,6.0,63,0.00,,---,25.54,VWS V14.01,2013-03-18 12:06:00,
2013-03-18 08:08:00,47.8,36.3,27.08,SW,225,4.0,8.7,64,0.00,,---,25.54,VWS V14.01,2013-03-18 12:08:00,
2013-03-18 08:10:00,47.8,35.9,27.08,SSW,202,5.4,6.5,63,0.00,,---,25.54,VWS V14.01,2013-03-18 12:10:00,
2013-03-18 08:12:00,47.8,36.3,27.08,SSE,158,6.0,6.5,64,0.00,,---,25.54,VWS V14.01,2013-03-18 12:12:00,
2013-03-18 08:14:00,48.0,36.8,27.08,ESE,112,2.9,6.0,65,0.00,,---,25.54,VWS V14.01,2013-03-18 12:14:00,
2013-03-18 08:15:00,48.0,36.4,27.08,SSE,158,4.3,4.3,64,0.00,,---,25.54,VWS V14.01,2013-03-18 12:15:00,
2013-03-18 08:16:00,48.0,36.8,27.08,SSE,158,5.4,5.4,65,0.00,,---,25.54,VWS V14.01,2013-03-18 12:16:00,
2013-03-18 08:18:00,48.2,37.0,27.08,SE,135,4.9,7.4,65,0.00,,---,25.54,VWS V14.01,2013-03-18 12:18:00,
2013-03-18 08:20:00,48.2,37.0,27.08,SE,135,4.9,5.6,65,0.00,,---,25.54,VWS V14.01,2013-03-18 12:20:00,
2013-03-18 08:22:00,48.2,36.6,27.08,East,90,4.9,6.3,64,0.00,,---,25.54,VWS V14.01,2013-03-18 12:22:00,
2013-03-18 08:24:00,48.2,36.2,27.08,SE,135,3.4,5.8,63,0.00,,---,25.54,VWS V14.01,2013-03-18 12:24:00,
2013-03-18 08:25:00,48.2,36.6,27.08,SSE,158,3.6,4.7,64,0.00,,---,25.54,VWS V14.01,2013-03-18 12:25:00,
2013-03-18 08:28:00,48.2,36.6,27.08,SSE,158,3.1,5.6,64,0.00,,---,25.54,VWS V14.01,2013-03-18 12:28:00,
2013-03-18 08:30:00,48.2,36.2,27.08,ESE,112,3.4,3.8,63,0.00,,---,25.54,VWS V14.01,2013-03-18 12:30:00,
2013-03-18 08:32:00,48.0,36.4,27.08,WSW,248,5.4,6.0,64,0.00,,---,25.54,VWS V14.01,2013-03-18 12:32:00,
2013-03-18 08:34:00,48.0,36.4,27.08,South,180,4.7,6.0,64,0.00,,---,25.54,VWS V14.01,2013-03-18 12:34:00,
2013-03-18 08:35:00,48.0,36.8,27.08,WSW,248,2.9,4.7,65,0.00,,---,25.54,VWS V14.01,2013-03-18 12:35:00,
2013-03-18 08:36:00,48.0,37.2,27.08,SSE,158,5.8,5.8,66,0.00,,---,25.54,VWS V14.01,2013-03-18 12:36:00,
2013-03-18 08:38:00,48.2,37.4,27.08,SSW,202,3.4,7.2,66,0.00,,---,25.54,VWS V14.01,2013-03-18 12:38:00,
2013-03-18 08:40:00,48.2,37.4,27.08,East,90,2.9,4.0,66,0.00,,---,25.54,VWS V14.01,2013-03-18 12:40:00,
2013-03-18 08:42:00,48.2,37.4,27.08,NNW,338,0.9,4.9,66,0.00,,---,25.54,VWS V14.01,2013-03-18 12:42:00,
2013-03-18 08:44:00,48.2,37.4,27.08,ESE,112,4.0,4.0,66,0.00,,---,25.54,VWS V14.01,2013-03-18 12:44:00,
2013-03-18 08:45:00,48.2,37.4,27.08,SE,135,2.7,4.7,66,0.00,,---,25.54,VWS V14.01,2013-03-18 12:45:00,
2013-03-18 08:46:00,48.2,37.4,27.08,SSE,158,2.9,5.4,66,0.00,,---,25.54,VWS V14.01,2013-03-18 12:46:00,
2013-03-18 08:48:00,48.2,37.4,27.08,SE,135,2.0,6.5,66,0.00,,---,25.54,VWS V14.01,2013-03-18 12:48:00,
2013-03-18 08:50:00,48.0,37.2,27.08,ESE,112,6.3,6.3,66,0.00,,---,25.54,VWS V14.01,2013-03-18 12:50:00,
2013-03-18 08:52:00,47.8,37.0,27.08,SSE,158,4.9,7.4,66,0.00,,---,25.54,VWS V14.01,2013-03-18 12:52:00,
2013-03-18 08:54:00,47.8,37.0,27.08,SSE,158,8.1,8.1,66,0.00,,---,25.54,VWS V14.01,2013-03-18 12:54:00,
2013-03-18 08:55:00,47.5,36.7,27.08,SE,135,4.0,8.1,66,0.00,,---,25.54,VWS V14.01,2013-03-18 12:55:00,
2013-03-18 08:56:00,47.5,36.7,27.08,SE,135,4.0,8.1,66,0.00,,---,25.54,VWS V14.01,2013-03-18 12:56:00,
2013-03-18 08:58:00,47.5,37.1,27.08,SE,135,5.4,5.4,67,0.00,,---,25.54,VWS V14.01,2013-03-18 12:58:00,
2013-03-18 09:00:00,47.5,36.7,27.08,SSE,158,5.8,6.9,66,0.00,,---,25.54,VWS V14.01,2013-03-18 13:00:00,
2013-03-18 09:02:00,47.5,36.7,27.08,SSE,158,2.9,12.5,66,0.00,,---,25.54,VWS V14.01,2013-03-18 13:02:00,
2013-03-18 09:04:00,47.5,37.1,27.08,SSE,158,3.6,6.0,67,0.00,,---,25.54,VWS V14.01,2013-03-18 13:04:00,
2013-03-18 09:05:00,47.5,37.5,27.08,SE,135,2.7,6.3,68,0.00,,---,25.54,VWS V14.01,2013-03-18 13:05:00,
2013-03-18 09:06:00,47.7,37.6,27.08,South,180,3.6,6.3,68,0.00,,---,25.54,VWS V14.01,2013-03-18 13:06:00,
2013-03-18 09:08:00,47.7,37.6,27.08,SE,135,7.4,7.4,68,0.00,,---,25.54,VWS V14.01,2013-03-18 13:08:00,
2013-03-18 09:10:00,47.8,37.8,27.08,SE,135,3.6,5.6,68,0.00,,---,25.54,VWS V14.01,2013-03-18 13:10:00,
2013-03-18 09:12:00,47.8,37.4,27.08,ESE,112,4.9,7.2,67,0.00,,---,25.54,VWS V14.01,2013-03-18 13:12:00,
2013-03-18 09:14:00,48.0,38.0,27.08,SSE,158,6.3,7.4,68,0.00,,---,25.54,VWS V14.01,2013-03-18 13:14:00,
2013-03-18 09:15:00,48.0,38.0,27.08,ESE,112,8.1,8.1,68,0.00,,---,25.54,VWS V14.01,2013-03-18 13:15:00,
2013-03-18 09:16:00,48.0,37.6,27.08,SSE,158,5.6,8.1,67,0.00,,---,25.54,VWS V14.01,2013-03-18 13:16:00,
2013-03-18 09:18:00,47.8,37.0,27.05,SSW,202,5.8,7.6,66,0.00,,---,25.54,VWS V14.01,2013-03-18 13:18:00,
2013-03-18 09:20:00,48.0,37.6,27.05,SSE,158,6.9,6.9,67,0.00,,---,25.54,VWS V14.01,2013-03-18 13:20:00,
2013-03-18 09:22:00,48.0,37.6,27.05,SE,135,2.9,7.8,67,0.00,,---,25.54,VWS V14.01,2013-03-18 13:22:00,
2013-03-18 09:24:00,48.0,37.6,27.05,South,180,4.0,7.6,67,0.00,,---,25.54,VWS V14.01,2013-03-18 13:24:00,
2013-03-18 09:25:00,48.2,37.4,27.05,ESE,112,2.5,4.9,66,0.00,,---,25.54,VWS V14.01,2013-03-18 13:25:00,
2013-03-18 09:26:00,48.2,37.4,27.05,NE,45,4.0,4.9,66,0.00,,---,25.54,VWS V14.01,2013-03-18 13:26:00,
2013-03-18 09:28:00,48.2,37.8,27.05,ESE,112,5.8,5.8,67,0.00,,---,25.54,VWS V14.01,2013-03-18 13:28:00,
2013-03-18 09:30:00,48.4,38.3,27.05,South,180,1.6,3.4,68,0.00,,---,25.54,VWS V14.01,2013-03-18 13:30:00,
2013-03-18 09:32:00,48.6,38.1,27.05,ESE,112,1.6,4.3,67,0.00,,---,25.54,VWS V14.01,2013-03-18 13:32:00,
2013-03-18 09:34:00,48.7,38.7,27.05,SSE,158,6.0,6.5,68,0.00,,---,25.54,VWS V14.01,2013-03-18 13:34:00,
2013-03-18 09:35:00,48.9,38.5,27.05,SSE,158,2.7,6.3,67,0.00,,---,25.54,VWS V14.01,2013-03-18 13:35:00,
2013-03-18 09:36:00,48.9,38.5,27.05,South,180,1.6,6.3,67,0.00,,---,25.54,VWS V14.01,2013-03-18 13:36:00,
2013-03-18 09:38:00,49.1,38.2,27.05,SSE,158,4.0,6.3,66,0.00,,---,25.54,VWS V14.01,2013-03-18 13:38:00,
2013-03-18 09:40:00,49.1,37.9,27.05,SSE,158,3.6,5.4,65,0.00,,---,25.54,VWS V14.01,2013-03-18 13:40:00,
2013-03-18 09:42:00,49.5,38.2,27.05,WNW,292,4.3,5.8,65,0.00,,---,25.54,VWS V14.01,2013-03-18 13:42:00,
2013-03-18 09:44:00,49.6,38.4,27.05,WSW,248,4.3,6.5,65,0.00,,---,25.54,VWS V14.01,2013-03-18 13:44:00,
2013-03-18 09:45:00,49.5,37.8,27.05,ESE,112,6.3,6.3,64,0.00,,---,25.54,VWS V14.01,2013-03-18 13:45:00,
2013-03-18 09:46:00,49.6,38.0,27.05,SSE,158,5.8,6.3,64,0.00,,---,25.54,VWS V14.01,2013-03-18 13:46:00,
2013-03-18 09:48:00,49.8,38.5,27.05,South,180,4.7,5.8,65,0.00,,---,25.54,VWS V14.01,2013-03-18 13:48:00,
2013-03-18 09:50:00,50.0,37.9,27.05,SSE,158,5.4,6.5,63,0.00,,---,25.54,VWS V14.01,2013-03-18 13:50:00,
2013-03-18 09:52:00,50.0,37.9,27.05,SE,135,4.7,6.5,63,0.00,,---,25.54,VWS V14.01,2013-03-18 13:52:00,
2013-03-18 09:54:00,50.2,38.1,27.05,SSE,158,2.7,4.7,63,0.00,,---,25.54,VWS V14.01,2013-03-18 13:54:00,
2013-03-18 09:55:00,50.2,38.1,27.05,East,90,6.3,6.3,63,0.00,,---,25.54,VWS V14.01,2013-03-18 13:55:00,
2013-03-18 09:56:00,50.2,38.1,27.05,ESE,112,4.0,6.3,63,0.00,,---,25.54,VWS V14.01,2013-03-18 13:56:00,
2013-03-18 09:58:00,50.5,38.0,27.05,SE,135,2.0,4.0,62,0.00,,---,25.54,VWS V14.01,2013-03-18 13:58:00,
2013-03-18 10:00:00,50.7,38.2,27.05,SSW,202,2.0,2.5,62,0.00,,---,25.54,VWS V14.01,2013-03-18 14:00:00,
2013-03-18 10:02:00,50.7,38.2,27.08,SSE,158,2.7,2.7,62,0.00,,---,25.54,VWS V14.01,2013-03-18 14:02:00,
2013-03-18 10:04:00,50.9,37.9,27.08,SSE,158,1.6,4.9,61,0.00,,---,25.54,VWS V14.01,2013-03-18 14:04:00,
2013-03-18 10:05:00,51.1,38.1,27.08,ESE,112,2.9,5.4,61,0.00,,---,25.54,VWS V14.01,2013-03-18 14:05:00,
2013-03-18 10:06:00,51.1,38.1,27.08,SE,135,3.8,5.4,61,0.00,,---,25.54,VWS V14.01,2013-03-18 14:06:00,
2013-03-18 10:08:00,51.3,38.3,27.08,SSE,158,4.9,5.4,61,0.00,,---,25.54,VWS V14.01,2013-03-18 14:08:00,
2013-03-18 10:10:00,51.6,38.2,27.08,SSE,158,2.9,2.9,60,0.00,,---,25.54,VWS V14.01,2013-03-18 14:10:00,
2013-03-18 10:12:00,51.6,37.8,27.08,SSE,158,2.7,4.7,59,0.00,,---,25.54,VWS V14.01,2013-03-18 14:12:00,
2013-03-18 10:14:00,52.0,37.7,27.08,SE,135,3.1,5.8,58,0.00,,---,25.54,VWS V14.01,2013-03-18 14:14:00,
2013-03-18 10:15:00,52.0,37.7,27.08,SSE,158,3.8,4.0,58,0.00,,---,25.54,VWS V14.01,2013-03-18 14:15:00,
2013-03-18 10:16:00,52.0,37.2,27.08,SW,225,4.5,4.5,57,0.00,,---,25.54,VWS V14.01,2013-03-18 14:16:00,
2013-03-18 10:18:00,52.0,36.8,27.08,SSE,158,4.3,4.5,56,0.00,,---,25.54,VWS V14.01,2013-03-18 14:18:00,
2013-03-18 10:20:00,51.8,36.6,27.08,SSE,158,3.1,3.1,56,0.00,,---,25.54,VWS V14.01,2013-03-18 14:20:00,
2013-03-18 10:22:00,52.0,36.8,27.08,SSE,158,2.7,3.1,56,0.00,,---,25.54,VWS V14.01,2013-03-18 14:22:00,
2013-03-18 10:24:00,52.2,36.5,27.08,South,180,2.9,4.9,55,0.00,,---,25.54,VWS V14.01,2013-03-18 14:24:00,
2013-03-18 10:25:00,52.2,36.5,27.08,ESE,112,2.2,4.0,55,0.00,,---,25.54,VWS V14.01,2013-03-18 14:25:00,
2013-03-18 10:26:00,52.2,36.5,27.08,SE,135,4.9,4.9,55,0.00,,---,25.54,VWS V14.01,2013-03-18 14:26:00,
2013-03-18 10:28:00,52.2,36.5,27.08,ESE,112,2.7,4.9,55,0.00,,---,25.54,VWS V14.01,2013-03-18 14:28:00,
2013-03-18 10:30:00,52.3,36.7,27.08,ENE,68,2.2,3.1,55,0.00,,---,25.54,VWS V14.01,2013-03-18 14:30:00,
2013-03-18 10:32:00,52.5,37.3,27.08,ESE,112,3.4,3.8,56,0.00,,---,25.54,VWS V14.01,2013-03-18 14:32:00,
2013-03-18 10:34:00,52.5,37.3,27.08,SE,135,4.7,6.0,56,0.00,,---,25.54,VWS V14.01,2013-03-18 14:34:00,
2013-03-18 10:35:00,52.7,37.5,27.08,East,90,2.9,5.4,56,0.00,,---,25.54,VWS V14.01,2013-03-18 14:35:00,
2013-03-18 10:36:00,52.7,37.5,27.08,East,90,2.9,5.4,56,0.00,,---,25.54,VWS V14.01,2013-03-18 14:36:00,
2013-03-18 10:38:00,52.9,37.2,27.08,SE,135,3.1,6.3,55,0.00,,---,25.54,VWS V14.01,2013-03-18 14:38:00,
2013-03-18 10:40:00,53.1,36.9,27.08,ESE,112,2.7,4.0,54,0.00,,---,25.54,VWS V14.01,2013-03-18 14:40:00,
2013-03-18 10:42:00,53.1,36.9,27.08,WNW,292,1.1,6.0,54,0.00,,---,25.54,VWS V14.01,2013-03-18 14:42:00,
2013-03-18 10:44:00,53.2,37.0,27.08,South,180,2.0,2.9,54,0.00,,---,25.54,VWS V14.01,2013-03-18 14:44:00,
2013-03-18 10:45:00,53.2,36.6,27.08,ESE,112,2.5,2.5,53,0.00,,---,25.54,VWS V14.01,2013-03-18 14:45:00,
2013-03-18 10:46:00,53.2,36.6,27.08,ESE,112,2.5,2.5,53,0.00,,---,25.54,VWS V14.01,2013-03-18 14:46:00,
2013-03-18 10:48:00,53.4,36.7,27.05,SE,135,4.3,7.6,53,0.00,,---,25.54,VWS V14.01,2013-03-18 14:48:00,
2013-03-18 10:50:00,53.6,36.4,27.05,SE,135,0.9,1.3,52,0.00,,---,25.54,VWS V14.01,2013-03-18 14:50:00,
2013-03-18 10:52:00,53.6,35.9,27.05,SW,225,3.1,4.7,51,0.00,,---,25.54,VWS V14.01,2013-03-18 14:52:00,
2013-03-18 10:54:00,53.6,35.9,27.05,SSE,158,2.9,3.4,51,0.00,,---,25.54,VWS V14.01,2013-03-18 14:54:00,
2013-03-18 10:55:00,53.8,36.1,27.05,SE,135,4.9,5.8,51,0.00,,---,25.54,VWS V14.01,2013-03-18 14:55:00,
2013-03-18 10:56:00,53.8,36.1,27.05,East,90,3.8,5.8,51,0.00,,---,25.54,VWS V14.01,2013-03-18 14:56:00,
2013-03-18 10:58:00,53.8,36.6,27.05,ESE,112,1.6,7.2,52,0.00,,---,25.54,VWS V14.01,2013-03-18 14:58:00,
2013-03-18 11:00:00,54.0,36.3,27.05,ESE,112,5.8,6.3,51,0.00,,---,25.54,VWS V14.01,2013-03-18 15:00:00,
2013-03-18 11:02:00,54.1,36.4,27.05,ESE,112,4.0,6.3,51,0.00,,---,25.54,VWS V14.01,2013-03-18 15:02:00,
2013-03-18 11:04:00,54.0,35.2,27.02,SE,135,5.8,6.3,49,0.00,,---,25.54,VWS V14.01,2013-03-18 15:04:00,
2013-03-18 11:05:00,54.1,36.4,27.02,ESE,112,4.0,7.4,51,0.00,,---,25.54,VWS V14.01,2013-03-18 15:05:00,
2013-03-18 11:06:00,54.1,36.4,27.02,ENE,68,4.0,7.4,51,0.00,,---,25.54,VWS V14.01,2013-03-18 15:06:00,
2013-03-18 11:08:00,54.3,36.6,27.02,ESE,112,4.0,5.6,51,0.00,,---,25.54,VWS V14.01,2013-03-18 15:08:00,
2013-03-18 11:10:00,54.5,36.3,27.02,ENE,68,1.3,2.5,50,0.00,,---,25.54,VWS V14.01,2013-03-18 15:10:00,
2013-03-18 11:12:00,54.5,36.3,27.02,SSE,158,3.8,5.4,50,0.00,,---,25.54,VWS V14.01,2013-03-18 15:12:00,
2013-03-18 11:14:00,54.5,36.3,27.02,SW,225,6.3,6.3,50,0.00,,---,25.54,VWS V14.01,2013-03-18 15:14:00,
2013-03-18 11:15:00,54.5,35.8,27.02,ESE,112,2.5,6.3,49,0.00,,---,25.54,VWS V14.01,2013-03-18 15:15:00,
2013-03-18 11:16:00,54.5,35.8,27.02,ESE,112,2.5,6.3,49,0.00,,---,25.54,VWS V14.01,2013-03-18 15:16:00,
2013-03-18 11:18:00,54.7,35.9,27.02,SE,135,5.4,7.6,49,0.00,,---,25.54,VWS V14.01,2013-03-18 15:18:00,
2013-03-18 11:20:00,54.7,35.4,27.02,ESE,112,3.8,5.4,48,0.00,,---,25.54,VWS V14.01,2013-03-18 15:20:00,
2013-03-18 11:22:00,54.7,36.4,27.02,South,180,2.9,5.4,50,0.00,,---,25.54,VWS V14.01,2013-03-18 15:22:00,
2013-03-18 11:24:00,54.7,36.9,27.02,SSE,158,5.6,5.6,51,0.00,,---,25.54,VWS V14.01,2013-03-18 15:24:00,
2013-03-18 11:25:00,54.9,36.1,27.02,East,90,3.4,5.6,49,0.00,,---,25.54,VWS V14.01,2013-03-18 15:25:00,
2013-03-18 11:26:00,54.9,36.1,27.02,NNE,22,1.6,5.6,49,0.00,,---,25.54,VWS V14.01,2013-03-18 15:26:00,
2013-03-18 11:28:00,54.9,36.1,27.02,WSW,248,1.1,2.7,49,0.00,,---,25.54,VWS V14.01,2013-03-18 15:28:00,
2013-03-18 11:30:00,55.0,36.2,27.02,ESE,112,3.4,11.2,49,0.00,,---,25.54,VWS V14.01,2013-03-18 15:30:00,
2013-03-18 11:32:00,55.2,35.9,27.02,ESE,112,6.5,11.2,48,0.00,,---,25.54,VWS V14.01,2013-03-18 15:32:00,
2013-03-18 11:34:00,55.0,35.7,27.02,SE,135,5.6,9.0,48,0.00,,---,25.54,VWS V14.01,2013-03-18 15:34:00,
2013-03-18 11:35:00,55.0,35.7,27.02,NE,45,3.1,5.8,48,0.00,,---,25.54,VWS V14.01,2013-03-18 15:35:00,
2013-03-18 11:36:00,55.0,35.7,27.02,SW,225,2.5,5.8,48,0.00,,---,25.54,VWS V14.01,2013-03-18 15:36:00,
2013-03-18 11:38:00,55.2,35.9,27.02,East,90,2.5,4.9,48,0.00,,---,25.54,VWS V14.01,2013-03-18 15:38:00,
2013-03-18 11:40:00,55.4,36.1,27.02,South,180,3.8,4.7,48,0.00,,---,25.54,VWS V14.01,2013-03-18 15:40:00,
2013-03-18 11:44:00,55.6,35.7,27.02,South,180,5.8,7.2,47,0.00,,---,25.54,VWS V14.01,2013-03-18 15:44:00,
2013-03-18 11:45:00,55.8,36.4,27.02,ESE,112,6.3,6.3,48,0.00,,---,25.54,VWS V14.01,2013-03-18 15:45:00,
2013-03-18 11:46:00,55.8,35.8,27.02,WSW,248,8.1,8.1,47,0.00,,---,25.54,VWS V14.01,2013-03-18 15:46:00,
2013-03-18 11:48:00,55.8,35.8,26.99,SE,135,3.6,10.1,47,0.00,,---,25.54,VWS V14.01,2013-03-18 15:48:00,
2013-03-18 11:50:00,55.9,36.0,26.99,NNE,22,3.8,3.8,47,0.00,,---,25.54,VWS V14.01,2013-03-18 15:50:00,
2013-03-18 11:52:00,56.1,36.2,26.99,WSW,248,1.6,3.8,47,0.00,,---,25.54,VWS V14.01,2013-03-18 15:52:00,
2013-03-18 11:54:00,56.3,36.3,26.99,SSE,158,3.6,3.8,47,0.00,,---,25.54,VWS V14.01,2013-03-18 15:54:00,
2013-03-18 11:55:00,56.3,35.8,26.99,SE,135,2.9,5.8,46,0.00,,---,25.54,VWS V14.01,2013-03-18 15:55:00,
2013-03-18 11:56:00,56.3,35.8,26.99,SSE,158,2.9,5.8,46,0.00,,---,25.54,VWS V14.01,2013-03-18 15:56:00,
2013-03-18 11:58:00,56.3,35.2,26.99,WSW,248,3.8,9.4,45,0.00,,---,25.54,VWS V14.01,2013-03-18 15:58:00,
2013-03-18 12:00:00,56.3,35.2,26.99,SW,225,5.8,5.8,45,0.00,,---,25.54,VWS V14.01,2013-03-18 16:00:00,
2013-03-18 12:02:00,56.3,35.2,26.99,WSW,248,5.6,5.8,45,0.00,,---,25.54,VWS V14.01,2013-03-18 16:02:00,
2013-03-18 12:04:00,56.5,35.4,27.02,SE,135,4.7,5.6,45,0.00,,---,25.54,VWS V14.01,2013-03-18 16:04:00,
2013-03-18 12:05:00,56.3,34.7,27.02,SSW,202,10.1,10.1,44,0.00,,---,25.54,VWS V14.01,2013-03-18 16:05:00,
2013-03-18 12:06:00,56.3,34.7,27.02,SW,225,6.0,10.1,44,0.00,,---,25.54,VWS V14.01,2013-03-18 16:06:00,
2013-03-18 12:08:00,56.5,34.3,27.02,SSW,202,2.7,6.3,43,0.00,,---,25.54,VWS V14.01,2013-03-18 16:08:00,
2013-03-18 12:10:00,56.5,34.3,27.02,SSE,158,3.1,3.8,43,0.00,,---,25.54,VWS V14.01,2013-03-18 16:10:00,
2013-03-18 12:12:00,56.5,34.3,27.02,SSW,202,4.9,10.7,43,0.00,,---,25.54,VWS V14.01,2013-03-18 16:12:00,
2013-03-18 12:14:00,56.3,34.1,27.02,NE,45,2.9,10.5,43,0.00,,---,25.54,VWS V14.01,2013-03-18 16:14:00,
2013-03-18 12:15:00,56.5,34.8,27.02,ENE,68,4.9,5.6,44,0.00,,---,25.54,VWS V14.01,2013-03-18 16:15:00,
2013-03-18 12:16:00,56.7,35.0,27.02,SSE,158,2.9,5.6,44,0.00,,---,25.54,VWS V14.01,2013-03-18 16:16:00,
2013-03-18 12:18:00,56.7,33.8,26.99,SSW,202,5.6,8.5,42,0.00,,---,25.54,VWS V14.01,2013-03-18 16:18:00,
2013-03-18 12:20:00,56.7,33.8,26.99,SW,225,6.5,6.5,42,0.00,,---,25.54,VWS V14.01,2013-03-18 16:20:00,
2013-03-18 12:22:00,56.7,33.8,26.99,WNW,292,5.8,6.5,42,0.00,,---,25.54,VWS V14.01,2013-03-18 16:22:00,
2013-03-18 12:24:00,56.7,33.8,26.99,WSW,248,6.0,11.0,42,0.00,,---,25.54,VWS V14.01,2013-03-18 16:24:00,
2013-03-18 12:25:00,56.5,33.7,26.99,SW,225,7.4,7.8,42,0.00,,---,25.54,VWS V14.01,2013-03-18 16:25:00,
2013-03-18 12:26:00,56.5,33.7,26.99,ESE,112,4.7,7.8,42,0.00,,---,25.54,VWS V14.01,2013-03-18 16:26:00,
2013-03-18 12:28:00,56.7,33.8,26.99,ESE,112,2.9,6.0,42,0.00,,---,25.54,VWS V14.01,2013-03-18 16:28:00,
2013-03-18 12:30:00,56.5,33.1,26.99,SE,135,4.9,6.5,41,0.00,,---,25.54,VWS V14.01,2013-03-18 16:30:00,
2013-03-18 12:32:00,56.3,34.1,27.05,WSW,248,4.7,7.2,43,0.00,,---,25.54,VWS V14.01,2013-03-18 16:32:00,
2013-03-18 12:34:00,56.3,33.5,27.05,ESE,112,5.4,6.5,42,0.00,,---,25.54,VWS V14.01,2013-03-18 16:34:00,
2013-03-18 12:35:00,56.5,33.7,27.05,ESE,112,3.4,5.6,42,0.00,,---,25.54,VWS V14.01,2013-03-18 16:35:00,
2013-03-18 12:36:00,56.5,33.7,27.05,SE,135,3.4,5.6,42,0.00,,---,25.54,VWS V14.01,2013-03-18 16:36:00,
2013-03-18 12:38:00,56.5,34.3,27.05,ESE,112,3.1,4.3,43,0.00,,---,25.54,VWS V14.01,2013-03-18 16:38:00,
2013-03-18 12:40:00,56.5,34.3,27.05,ESE,112,1.3,2.7,43,0.00,,---,25.54,VWS V14.01,2013-03-18 16:40:00,
2013-03-18 12:42:00,56.5,34.3,27.05,NNE,22,3.1,6.3,43,0.00,,---,25.54,VWS V14.01,2013-03-18 16:42:00,
2013-03-18 12:44:00,56.3,34.7,27.05,East,90,5.8,6.5,44,0.00,,---,25.54,VWS V14.01,2013-03-18 16:44:00,
2013-03-18 12:45:00,56.3,34.1,27.05,ESE,112,5.4,7.2,43,0.00,,---,25.54,VWS V14.01,2013-03-18 16:45:00,
2013-03-18 12:46:00,56.3,35.2,27.05,SW,225,2.7,7.2,45,0.00,,---,25.54,VWS V14.01,2013-03-18 16:46:00,
2013-03-18 12:48:00,56.3,35.2,27.02,SSW,202,1.6,4.3,45,0.00,,---,25.54,VWS V14.01,2013-03-18 16:48:00,
2013-03-18 12:50:00,56.1,35.1,27.02,ESE,112,3.8,5.4,45,0.00,,---,25.54,VWS V14.01,2013-03-18 16:50:00,
2013-03-18 12:52:00,56.1,35.1,27.02,ENE,68,5.6,7.4,45,0.00,,---,25.54,VWS V14.01,2013-03-18 16:52:00,
2013-03-18 12:54:00,56.1,35.1,27.02,ESE,112,5.4,7.6,45,0.00,,---,25.54,VWS V14.01,2013-03-18 16:54:00,
2013-03-18 12:55:00,56.1,34.5,27.02,SE,135,2.9,6.0,44,0.00,,---,25.54,VWS V14.01,2013-03-18 16:55:00,
2013-03-18 12:56:00,56.3,35.2,27.02,SSE,158,5.4,6.0,45,0.00,,---,25.54,VWS V14.01,2013-03-18 16:56:00,
2013-03-18 12:58:00,56.3,34.7,27.02,ENE,68,2.5,6.0,44,0.00,,---,25.54,VWS V14.01,2013-03-18 16:58:00,
2013-03-18 13:00:00,56.3,34.1,27.02,East,90,4.9,4.9,43,0.00,,---,25.54,VWS V14.01,2013-03-18 17:00:00,
2013-03-18 13:04:00,56.5,34.8,27.02,SSW,202,2.7,7.6,44,0.00,,---,25.54,VWS V14.01,2013-03-18 17:04:00,
2013-03-18 13:05:00,56.5,33.7,27.02,ENE,68,2.9,10.5,42,0.00,,---,25.54,VWS V14.01,2013-03-18 17:05:00,
2013-03-18 13:06:00,56.5,33.7,27.02,South,180,1.6,10.5,42,0.00,,---,25.54,VWS V14.01,2013-03-18 17:06:00,
2013-03-18 13:08:00,56.7,34.4,27.02,West,270,6.7,7.8,43,0.00,,---,25.54,VWS V14.01,2013-03-18 17:08:00,
2013-03-18 13:10:00,56.7,33.8,27.02,East,90,7.6,7.6,42,0.00,,---,25.54,VWS V14.01,2013-03-18 17:10:00,
2013-03-18 13:12:00,56.7,33.8,27.02,NE,45,2.0,7.6,42,0.00,,---,25.54,VWS V14.01,2013-03-18 17:12:00,
2013-03-18 13:14:00,56.7,33.2,27.02,SE,135,1.6,5.4,41,0.00,,---,25.54,VWS V14.01,2013-03-18 17:14:00,
2013-03-18 13:15:00,56.8,34.0,27.02,SSE,158,8.5,8.5,42,0.00,,---,25.54,VWS V14.01,2013-03-18 17:15:00,
2013-03-18 13:16:00,56.7,33.8,27.02,West,270,10.3,10.3,42,0.00,,---,25.54,VWS V14.01,2013-03-18 17:16:00,
2013-03-18 13:18:00,56.5,33.1,26.99,SSW,202,4.9,10.3,41,0.00,,---,25.54,VWS V14.01,2013-03-18 17:18:00,
2013-03-18 13:20:00,56.1,35.1,26.99,SSE,158,2.5,3.6,45,0.00,,---,25.54,VWS V14.01,2013-03-18 17:20:00,
2013-03-18 13:22:00,56.1,35.6,26.99,ESE,112,3.8,8.5,46,0.00,,---,25.54,VWS V14.01,2013-03-18 17:22:00,
2013-03-18 13:24:00,55.4,36.1,26.99,WSW,248,6.0,6.0,48,0.00,,---,25.54,VWS V14.01,2013-03-18 17:24:00,
2013-03-18 13:25:00,55.4,36.1,26.99,SSW,202,5.4,6.0,48,0.00,,---,25.54,VWS V14.01,2013-03-18 17:25:00,
2013-03-18 13:26:00,55.4,36.1,26.99,SSE,158,3.1,6.0,48,0.00,,---,25.54,VWS V14.01,2013-03-18 17:26:00,
2013-03-18 13:28:00,55.2,35.4,26.99,ESE,112,6.5,8.1,47,0.00,,---,25.54,VWS V14.01,2013-03-18 17:28:00,
2013-03-18 13:30:00,55.6,35.7,26.99,East,90,3.8,5.4,47,0.00,,---,25.54,VWS V14.01,2013-03-18 17:30:00,
2013-03-18 13:32:00,55.2,37.9,26.99,SSE,158,4.9,6.3,52,0.00,,---,25.54,VWS V14.01,2013-03-18 17:32:00,
2013-03-18 13:34:00,54.7,35.9,26.99,South,180,3.6,6.3,49,0.00,,---,25.54,VWS V14.01,2013-03-18 17:34:00,
2013-03-18 13:35:00,54.7,36.9,26.99,SE,135,3.8,4.5,51,0.00,,---,25.54,VWS V14.01,2013-03-18 17:35:00,
2013-03-18 13:36:00,54.7,36.9,26.99,WSW,248,2.9,4.5,51,0.00,,---,25.54,VWS V14.01,2013-03-18 17:36:00,
2013-03-18 13:38:00,54.9,36.6,26.99,SE,135,4.7,9.8,50,0.00,,---,25.54,VWS V14.01,2013-03-18 17:38:00,
2013-03-18 13:40:00,54.9,38.1,26.99,South,180,2.0,2.9,53,0.00,,---,25.54,VWS V14.01,2013-03-18 17:40:00,
2013-03-18 13:42:00,54.5,36.3,26.99,SSE,158,3.6,5.6,50,0.00,,---,25.54,VWS V14.01,2013-03-18 17:42:00,
2013-03-18 13:44:00,54.7,38.4,26.99,East,90,4.7,4.7,54,0.00,,---,25.54,VWS V14.01,2013-03-18 17:44:00,
2013-03-18 13:45:00,54.5,37.2,26.99,SSE,158,4.0,4.9,52,0.00,,---,25.54,VWS V14.01,2013-03-18 17:45:00,
2013-03-18 13:46:00,54.5,38.2,26.99,SE,135,3.4,4.9,54,0.00,,---,25.54,VWS V14.01,2013-03-18 17:46:00,
2013-03-18 13:48:00,54.5,37.7,26.99,SE,135,3.1,7.2,53,0.00,,---,25.54,VWS V14.01,2013-03-18 17:48:00,
2013-03-18 13:50:00,54.5,37.2,26.99,ESE,112,3.8,5.4,52,0.00,,---,25.54,VWS V14.01,2013-03-18 17:50:00,
2013-03-18 13:52:00,54.5,36.8,26.99,ESE,112,3.8,7.8,51,0.00,,---,25.54,VWS V14.01,2013-03-18 17:52:00,
2013-03-18 13:54:00,54.5,39.1,26.99,ENE,68,3.4,5.4,56,0.00,,---,25.54,VWS V14.01,2013-03-18 17:54:00,
2013-03-18 13:55:00,54.5,39.1,26.99,SSE,158,3.6,4.7,56,0.00,,---,25.54,VWS V14.01,2013-03-18 17:55:00,
2013-03-18 13:56:00,54.5,39.1,26.99,SSE,158,5.4,5.4,56,0.00,,---,25.54,VWS V14.01,2013-03-18 17:56:00,
2013-03-18 13:58:00,54.7,37.4,26.99,SSE,158,3.6,13.2,52,0.00,,---,25.54,VWS V14.01,2013-03-18 17:58:00,
2013-03-18 14:00:00,54.9,37.6,26.99,SSE,158,5.4,5.4,52,0.00,,---,25.54,VWS V14.01,2013-03-18 18:00:00,
2013-03-18 14:02:00,55.0,37.8,26.99,ENE,68,2.0,5.4,52,0.00,,---,25.54,VWS V14.01,2013-03-18 18:02:00,
2013-03-18 14:04:00,55.0,35.7,26.99,SSE,158,3.1,3.8,48,0.00,,---,25.54,VWS V14.01,2013-03-18 18:04:00,
2013-03-18 14:05:00,55.4,36.6,26.99,SW,225,6.3,6.3,49,0.00,,---,25.54,VWS V14.01,2013-03-18 18:05:00,
2013-03-18 14:08:00,55.6,36.2,26.99,SSE,158,2.9,6.3,48,0.00,,---,25.54,VWS V14.01,2013-03-18 18:08:00,
2013-03-18 14:10:00,55.8,36.4,26.99,South,180,5.8,5.8,48,0.00,,---,25.54,VWS V14.01,2013-03-18 18:10:00,
2013-03-18 14:12:00,55.8,35.8,26.99,SW,225,5.6,6.9,47,0.00,,---,25.54,VWS V14.01,2013-03-18 18:12:00,
2013-03-18 14:14:00,55.6,36.2,26.99,SSE,158,2.7,6.5,48,0.00,,---,25.54,VWS V14.01,2013-03-18 18:14:00,
2013-03-18 14:15:00,55.4,35.5,26.99,SW,225,5.4,5.4,47,0.00,,---,25.54,VWS V14.01,2013-03-18 18:15:00,
2013-03-18 14:16:00,55.4,35.5,26.99,SW,225,5.4,5.4,47,0.00,,---,25.54,VWS V14.01,2013-03-18 18:16:00,
2013-03-18 14:18:00,55.4,36.6,26.96,SE,135,2.0,6.0,49,0.00,,---,25.54,VWS V14.01,2013-03-18 18:18:00,
2013-03-18 14:20:00,55.0,35.7,26.96,NE,45,3.6,4.3,48,0.00,,---,25.54,VWS V14.01,2013-03-18 18:20:00,
2013-03-18 14:22:00,55.0,36.8,26.96,SSE,158,3.4,4.3,50,0.00,,---,25.54,VWS V14.01,2013-03-18 18:22:00,
2013-03-18 14:24:00,54.7,37.4,26.96,SE,135,3.6,4.9,52,0.00,,---,25.54,VWS V14.01,2013-03-18 18:24:00,
2013-03-18 14:25:00,54.7,36.9,26.96,ESE,112,1.6,4.0,51,0.00,,---,25.54,VWS V14.01,2013-03-18 18:25:00,
2013-03-18 14:26:00,54.7,37.4,26.96,SSE,158,3.4,4.0,52,0.00,,---,25.54,VWS V14.01,2013-03-18 18:26:00,
2013-03-18 14:28:00,54.7,37.4,26.96,ESE,112,3.1,6.5,52,0.00,,---,25.54,VWS V14.01,2013-03-18 18:28:00,
2013-03-18 14:30:00,54.5,37.7,26.96,SE,135,4.0,4.0,53,0.00,,---,25.54,VWS V14.01,2013-03-18 18:30:00,
2013-03-18 14:32:00,54.5,37.7,26.96,SE,135,5.4,7.4,53,0.00,,---,25.54,VWS V14.01,2013-03-18 18:32:00,
2013-03-18 14:34:00,54.5,37.7,26.96,SSE,158,5.4,6.5,53,0.00,,---,25.54,VWS V14.01,2013-03-18 18:34:00,
2013-03-18 14:35:00,54.5,37.7,26.96,ESE,112,6.0,6.0,53,0.00,,---,25.54,VWS V14.01,2013-03-18 18:35:00,
2013-03-18 14:36:00,54.5,37.7,26.96,SE,135,5.4,7.6,53,0.00,,---,25.54,VWS V14.01,2013-03-18 18:36:00,
2013-03-18 14:38:00,54.5,37.7,26.96,West,270,4.3,6.5,53,0.00,,---,25.54,VWS V14.01,2013-03-18 18:38:00,
2013-03-18 14:40:00,54.7,38.8,26.96,SSE,158,9.8,9.8,55,0.00,,---,25.54,VWS V14.01,2013-03-18 18:40:00,
2013-03-18 14:42:00,54.9,39.0,26.96,SSE,158,4.3,9.8,55,0.00,,---,25.54,VWS V14.01,2013-03-18 18:42:00,
2013-03-18 14:44:00,55.0,38.7,26.96,SSE,158,2.7,4.3,54,0.00,,---,25.54,VWS V14.01,2013-03-18 18:44:00,
2013-03-18 14:45:00,55.0,38.2,26.96,SSE,158,4.5,4.5,53,0.00,,---,25.54,VWS V14.01,2013-03-18 18:45:00,
2013-03-18 14:46:00,55.0,38.2,26.96,SSE,158,4.5,4.5,53,0.00,,---,25.54,VWS V14.01,2013-03-18 18:46:00,
2013-03-18 14:48:00,55.4,38.6,26.96,ESE,112,2.0,4.5,53,0.00,,---,25.54,VWS V14.01,2013-03-18 18:48:00,
2013-03-18 14:50:00,55.2,37.9,26.96,SSE,158,5.4,5.4,52,0.00,,---,25.54,VWS V14.01,2013-03-18 18:50:00,
2013-03-18 14:52:00,55.4,38.1,26.96,ESE,112,3.6,5.6,52,0.00,,---,25.54,VWS V14.01,2013-03-18 18:52:00,
2013-03-18 14:54:00,55.4,37.6,26.96,SE,135,3.8,6.0,51,0.00,,---,25.54,VWS V14.01,2013-03-18 18:54:00,
2013-03-18 14:55:00,55.4,37.6,26.96,SE,135,3.8,4.9,51,0.00,,---,25.54,VWS V14.01,2013-03-18 18:55:00,
2013-03-18 14:56:00,55.6,39.2,26.96,ESE,112,6.7,6.7,54,0.00,,---,25.54,VWS V14.01,2013-03-18 18:56:00,
2013-03-18 14:58:00,55.4,37.6,26.96,SE,135,5.6,6.7,51,0.00,,---,25.54,VWS V14.01,2013-03-18 18:58:00,
2013-03-18 15:00:00,55.4,37.6,26.96,ESE,112,7.4,7.4,51,0.00,,---,25.54,VWS V14.01,2013-03-18 19:00:00,
2013-03-18 15:02:00,55.4,37.1,26.96,SE,135,3.1,7.4,50,0.00,,---,25.54,VWS V14.01,2013-03-18 19:02:00,
2013-03-18 15:04:00,55.4,37.6,26.96,SSW,202,6.0,6.0,51,0.00,,---,25.54,VWS V14.01,2013-03-18 19:04:00,
2013-03-18 15:05:00,55.2,36.9,26.96,SSE,158,3.6,6.0,50,0.00,,---,25.54,VWS V14.01,2013-03-18 19:05:00,
2013-03-18 15:06:00,55.2,37.4,26.96,SSE,158,2.7,6.0,51,0.00,,---,25.54,VWS V14.01,2013-03-18 19:06:00,
2013-03-18 15:08:00,55.2,37.4,26.96,East,90,4.0,4.7,51,0.00,,---,25.54,VWS V14.01,2013-03-18 19:08:00,
2013-03-18 15:10:00,55.0,37.3,26.96,ESE,112,3.4,3.4,51,0.00,,---,25.54,VWS V14.01,2013-03-18 19:10:00,
2013-03-18 15:14:00,54.9,38.1,26.96,WSW,248,3.6,4.9,53,0.00,,---,25.54,VWS V14.01,2013-03-18 19:14:00,
2013-03-18 15:15:00,54.9,38.1,26.96,WSW,248,4.0,4.0,53,0.00,,---,25.54,VWS V14.01,2013-03-18 19:15:00,
2013-03-18 15:16:00,54.9,38.1,26.96,WSW,248,4.0,4.0,53,0.00,,---,25.54,VWS V14.01,2013-03-18 19:16:00,
2013-03-18 15:18:00,54.7,39.3,26.96,SSE,158,2.0,4.3,56,0.00,,---,25.54,VWS V14.01,2013-03-18 19:18:00,
2013-03-18 15:19:00,54.7,40.7,26.96,SSE,158,2.0,2.5,59,0.04,,---,25.58,VWS V14.01,2013-03-18 19:19:00,
2013-03-18 15:20:00,54.7,40.7,26.96,SSE,158,1.6,2.5,59,0.04,,---,25.58,VWS V14.01,2013-03-18 19:20:00,
2013-03-18 15:22:00,54.5,40.9,26.96,SE,135,1.1,2.5,60,0.04,,---,25.58,VWS V14.01,2013-03-18 19:22:00,
2013-03-18 15:24:00,54.3,42.4,26.96,WNW,292,2.2,2.7,64,0.04,,---,25.58,VWS V14.01,2013-03-18 19:24:00,
2013-03-18 15:26:00,54.1,42.7,26.96,WSW,248,1.6,2.7,65,0.04,,---,25.58,VWS V14.01,2013-03-18 19:26:00,
2013-03-18 15:28:00,54.1,43.0,26.96,SSE,158,2.5,2.5,66,0.04,,---,25.58,VWS V14.01,2013-03-18 19:28:00,
2013-03-18 15:29:00,53.2,43.7,26.96,SSE,158,4.5,4.5,70,0.04,,---,25.58,VWS V14.01,2013-03-18 19:29:00,
2013-03-18 15:30:00,53.6,43.7,26.96,SE,135,3.6,4.3,69,0.04,,---,25.58,VWS V14.01,2013-03-18 19:30:00,
2013-03-18 15:32:00,53.2,41.8,26.96,SSE,158,3.4,5.6,65,0.04,,---,25.58,VWS V14.01,2013-03-18 19:32:00,
2013-03-18 15:34:00,53.6,42.1,26.96,SSE,158,5.6,6.0,65,0.09,,---,25.63,VWS V14.01,2013-03-18 19:34:00,
2013-03-18 15:36:00,53.8,42.7,26.96,SW,225,4.0,6.0,66,0.09,,---,25.63,VWS V14.01,2013-03-18 19:36:00,
2013-03-18 15:38:00,53.8,41.5,26.96,SSW,202,5.4,6.3,63,0.09,,---,25.63,VWS V14.01,2013-03-18 19:38:00,
2013-03-18 15:39:00,54.0,40.0,26.96,South,180,2.5,4.0,59,0.09,,---,25.63,VWS V14.01,2013-03-18 19:39:00,
2013-03-18 15:40:00,54.0,40.0,26.96,SSW,202,4.0,5.8,59,0.09,,---,25.63,VWS V14.01,2013-03-18 19:40:00,
2013-03-18 15:42:00,54.3,41.6,26.96,South,180,2.5,4.7,62,0.09,,---,25.63,VWS V14.01,2013-03-18 19:42:00,
2013-03-18 15:44:00,54.3,40.8,26.96,ESE,112,3.6,5.6,60,0.09,,---,25.63,VWS V14.01,2013-03-18 19:44:00,
2013-03-18 15:46:00,54.3,40.7,26.96,ESE,112,4.0,5.6,60,0.09,,---,25.63,VWS V14.01,2013-03-18 19:46:00,
2013-03-18 15:48:00,54.3,40.3,26.96,SSE,158,2.5,7.2,59,0.09,,---,25.63,VWS V14.01,2013-03-18 19:48:00,
2013-03-18 15:49:00,54.3,40.3,26.96,ENE,68,2.5,2.7,59,0.09,,---,25.63,VWS V14.01,2013-03-18 19:49:00,
2013-03-18 15:50:00,54.3,40.3,26.96,ESE,112,2.7,3.1,59,0.09,,---,25.63,VWS V14.01,2013-03-18 19:50:00,
2013-03-18 15:52:00,54.5,41.3,26.96,ESE,112,3.4,3.4,61,0.09,,---,25.63,VWS V14.01,2013-03-18 19:52:00,
2013-03-18 15:54:00,54.7,41.1,26.96,ESE,112,2.0,3.1,60,0.09,,---,25.63,VWS V14.01,2013-03-18 19:54:00,
2013-03-18 15:56:00,54.7,40.7,26.96,SSE,158,3.4,3.4,59,0.09,,---,25.63,VWS V14.01,2013-03-18 19:56:00,
2013-03-18 15:58:00,54.7,39.8,26.96,SE,135,2.2,4.0,57,0.09,,---,25.63,VWS V14.01,2013-03-18 19:58:00,
2013-03-18 15:59:00,54.9,41.7,26.96,WNW,292,1.6,2.2,61,0.09,,---,25.63,VWS V14.01,2013-03-18 19:59:00,
2013-03-18 16:00:00,54.9,41.7,26.96,SSE,158,2.2,3.4,61,0.09,,---,25.63,VWS V14.01,2013-03-18 20:00:00,
2013-03-18 16:02:00,54.9,41.2,26.96,ENE,68,2.7,2.9,60,0.09,,---,25.63,VWS V14.01,2013-03-18 20:02:00,
2013-03-18 16:04:00,55.0,41.8,26.96,SSE,158,3.8,3.8,61,0.09,,---,25.63,VWS V14.01,2013-03-18 20:04:00,
2013-03-18 16:06:00,54.9,41.2,26.96,ESE,112,3.4,3.8,60,0.09,,---,25.63,VWS V14.01,2013-03-18 20:06:00,
2013-03-18 16:08:00,54.9,41.2,26.96,ESE,112,2.9,3.8,60,0.09,,---,25.63,VWS V14.01,2013-03-18 20:08:00,
2013-03-18 16:09:00,54.9,41.2,26.96,East,90,4.0,4.0,60,0.09,,---,25.63,VWS V14.01,2013-03-18 20:09:00,
2013-03-18 16:10:00,54.9,41.2,26.96,SE,135,2.5,3.8,60,0.09,,---,25.63,VWS V14.01,2013-03-18 20:10:00,
2013-03-18 16:12:00,54.9,42.1,26.96,SE,135,4.0,4.0,62,0.09,,---,25.63,VWS V14.01,2013-03-18 20:12:00,
2013-03-18 16:14:00,54.7,41.1,26.96,SSW,202,1.6,3.4,60,0.09,,---,25.63,VWS V14.01,2013-03-18 20:14:00,
2013-03-18 16:16:00,54.7,41.1,26.96,SSE,158,1.6,3.4,60,0.09,,---,25.63,VWS V14.01,2013-03-18 20:16:00,
2013-03-18 16:18:00,54.7,41.1,26.93,SSW,202,2.2,2.9,60,0.09,,---,25.63,VWS V14.01,2013-03-18 20:18:00,
2013-03-18 16:19:00,54.5,40.0,26.93,ESE,112,2.5,3.1,58,0.09,,---,25.67,VWS V14.01,2013-03-18 20:19:00,
2013-03-18 16:20:00,54.5,40.0,26.93,ESE,112,3.1,3.8,58,0.13,,---,25.67,VWS V14.01,2013-03-18 20:20:00,
2013-03-18 16:22:00,54.5,40.9,26.93,South,180,2.2,3.1,60,0.09,,---,25.67,VWS V14.01,2013-03-18 20:22:00,
2013-03-18 16:24:00,54.3,39.9,26.93,ESE,112,2.0,2.9,58,0.09,,---,25.67,VWS V14.01,2013-03-18 20:24:00,
2013-03-18 16:26:00,54.3,40.3,26.93,SE,135,2.7,3.1,59,0.09,,---,25.67,VWS V14.01,2013-03-18 20:26:00,
2013-03-18 16:28:00,54.3,43.2,26.93,WSW,248,3.4,3.8,66,0.09,,---,25.67,VWS V14.01,2013-03-18 20:28:00,
2013-03-18 16:29:00,53.8,40.7,26.93,SE,135,2.2,2.9,61,0.09,,---,25.67,VWS V14.01,2013-03-18 20:29:00,
2013-03-18 16:30:00,53.8,40.7,26.93,SE,135,2.9,3.6,61,0.09,,---,25.67,VWS V14.01,2013-03-18 20:30:00,
2013-03-18 16:32:00,53.8,40.7,26.93,NW,315,1.1,2.9,61,0.09,,---,25.67,VWS V14.01,2013-03-18 20:32:00,
2013-03-18 16:34:00,53.8,43.1,26.93,NNW,338,2.5,4.3,67,0.04,,---,25.67,VWS V14.01,2013-03-18 20:34:00,
2013-03-18 16:36:00,53.6,43.3,26.93,WNW,292,2.5,4.3,68,0.08,,---,25.71,VWS V14.01,2013-03-18 20:36:00,
2013-03-18 16:38:00,53.4,43.1,26.93,NW,315,2.2,3.1,68,0.08,,---,25.71,VWS V14.01,2013-03-18 20:38:00,
2013-03-18 16:40:00,53.1,43.2,26.93,WNW,292,1.1,1.1,69,0.08,,---,25.71,VWS V14.01,2013-03-18 20:40:00,
2013-03-18 16:42:00,53.1,43.2,26.93,NE,45,1.3,2.5,69,0.08,,---,25.71,VWS V14.01,2013-03-18 20:42:00,
2013-03-18 16:44:00,52.9,42.2,26.93,NNE,22,1.3,2.7,67,0.08,,---,25.71,VWS V14.01,2013-03-18 20:44:00,
2013-03-18 16:45:00,52.9,43.4,26.93,WNW,292,2.0,2.2,70,0.12,,---,25.75,VWS V14.01,2013-03-18 20:45:00,
2013-03-18 16:46:00,52.9,43.4,26.93,WNW,292,1.6,2.2,70,0.12,,---,25.75,VWS V14.01,2013-03-18 20:46:00,
2013-03-18 16:48:00,52.7,43.2,26.96,ENE,68,0.0,1.6,70,0.12,,---,25.75,VWS V14.01,2013-03-18 20:48:00,
2013-03-18 16:50:00,52.7,42.5,26.96,ESE,112,2.5,2.7,68,0.12,,---,25.75,VWS V14.01,2013-03-18 20:50:00,
2013-03-18 16:52:00,52.7,44.3,26.96,SSE,158,2.5,2.9,73,0.12,,---,25.75,VWS V14.01,2013-03-18 20:52:00,
2013-03-18 16:54:00,52.7,45.7,26.96,SE,135,2.5,3.1,77,0.12,,---,25.75,VWS V14.01,2013-03-18 20:54:00,
2013-03-18 16:55:00,52.5,45.5,26.96,WNW,292,2.0,2.5,77,0.12,,---,25.75,VWS V14.01,2013-03-18 20:55:00,
2013-03-18 16:56:00,52.5,45.9,26.96,West,270,1.3,2.5,78,0.12,,---,25.75,VWS V14.01,2013-03-18 20:56:00,
2013-03-18 16:58:00,52.3,45.0,26.96,ENE,68,2.2,2.2,76,0.12,,---,25.75,VWS V14.01,2013-03-18 20:58:00,
2013-03-18 17:00:00,52.2,43.8,26.96,NE,45,2.7,3.6,73,0.12,,---,25.75,VWS V14.01,2013-03-18 21:00:00,
2013-03-18 17:02:00,52.2,43.4,26.96,ENE,68,2.9,3.8,72,0.12,,---,25.75,VWS V14.01,2013-03-18 21:02:00,
2013-03-18 17:04:00,52.2,43.1,26.99,East,90,3.4,4.0,71,0.12,,---,25.75,VWS V14.01,2013-03-18 21:04:00,
2013-03-18 17:05:00,52.2,43.1,26.99,ENE,68,4.9,4.9,71,0.12,,---,25.75,VWS V14.01,2013-03-18 21:05:00,
2013-03-18 17:06:00,52.2,43.1,26.99,East,90,3.6,4.9,71,0.12,,---,25.75,VWS V14.01,2013-03-18 21:06:00,
2013-03-18 17:08:00,52.2,43.8,26.99,ENE,68,6.3,8.5,73,0.12,,---,25.75,VWS V14.01,2013-03-18 21:08:00,
2013-03-18 17:10:00,52.2,43.8,26.99,ENE,68,5.8,5.8,73,0.12,,---,25.75,VWS V14.01,2013-03-18 21:10:00,
2013-03-18 17:12:00,52.0,44.3,26.99,ENE,68,5.8,8.7,75,0.16,,---,25.79,VWS V14.01,2013-03-18 21:12:00,
2013-03-18 17:14:00,52.0,44.3,26.99,ENE,68,4.3,5.8,75,0.16,,---,25.79,VWS V14.01,2013-03-18 21:14:00,
2013-03-18 17:15:00,51.6,43.3,26.99,NE,45,7.6,12.1,73,0.16,,---,25.79,VWS V14.01,2013-03-18 21:15:00,
2013-03-18 17:16:00,51.6,43.3,26.99,North,0,7.4,12.1,73,0.16,,---,25.79,VWS V14.01,2013-03-18 21:16:00,
2013-03-18 17:18:00,51.6,41.4,26.99,NNE,22,4.3,10.7,68,0.16,,---,25.79,VWS V14.01,2013-03-18 21:18:00,
2013-03-18 17:20:00,51.4,40.9,26.99,NE,45,10.3,10.3,67,0.12,,---,25.79,VWS V14.01,2013-03-18 21:20:00,
2013-03-18 17:22:00,51.3,40.3,26.99,ENE,68,4.3,10.3,66,0.12,,---,25.79,VWS V14.01,2013-03-18 21:22:00,
2013-03-18 17:24:00,51.1,39.7,26.99,SE,135,4.0,5.6,65,0.12,,---,25.79,VWS V14.01,2013-03-18 21:24:00,
2013-03-18 17:26:00,51.1,39.7,26.99,SE,135,4.0,5.6,65,0.12,,---,25.79,VWS V14.01,2013-03-18 21:26:00,
2013-03-18 17:28:00,50.7,40.2,26.99,East,90,3.8,5.8,67,0.12,,---,25.79,VWS V14.01,2013-03-18 21:28:00,
2013-03-18 17:29:00,50.5,39.6,26.99,East,90,4.7,4.7,66,0.12,,---,25.79,VWS V14.01,2013-03-18 21:29:00,
2013-03-18 17:30:00,50.5,39.6,26.99,SSE,158,3.4,5.6,66,0.12,,---,25.79,VWS V14.01,2013-03-18 21:30:00,
2013-03-18 17:32:00,50.4,39.5,26.99,NE,45,3.6,5.4,66,0.16,,---,25.83,VWS V14.01,2013-03-18 21:32:00,
2013-03-18 17:34:00,50.0,39.5,26.99,NE,45,3.4,5.8,67,0.20,,---,25.87,VWS V14.01,2013-03-18 21:34:00,
2013-03-18 17:36:00,50.0,39.5,26.99,NNW,338,3.6,5.8,67,0.20,,---,25.87,VWS V14.01,2013-03-18 21:36:00,
2013-03-18 17:38:00,49.6,39.5,26.99,NE,45,3.6,7.8,68,0.16,,---,25.87,VWS V14.01,2013-03-18 21:38:00,
2013-03-18 17:39:00,49.3,39.5,26.99,ENE,68,2.9,6.0,69,0.21,,---,25.92,VWS V14.01,2013-03-18 21:39:00,
2013-03-18 17:40:00,49.3,39.6,26.99,North,0,3.6,7.2,69,0.21,,---,25.92,VWS V14.01,2013-03-18 21:40:00,
2013-03-18 17:42:00,49.1,39.4,26.99,ENE,68,3.4,7.4,69,0.25,,---,25.96,VWS V14.01,2013-03-18 21:42:00,
2013-03-18 17:44:00,48.9,38.8,26.99,SE,135,2.0,3.4,68,0.29,,---,26.00,VWS V14.01,2013-03-18 21:44:00,
2013-03-18 17:45:00,48.7,39.4,26.99,South,180,1.1,2.0,70,0.33,,---,26.04,VWS V14.01,2013-03-18 21:45:00,
2013-03-18 17:46:00,48.7,39.4,26.99,SSW,202,1.3,2.0,70,0.33,,---,26.04,VWS V14.01,2013-03-18 21:46:00,
2013-03-18 17:50:00,48.4,39.8,27.02,NE,45,2.9,3.8,72,0.33,,---,26.08,VWS V14.01,2013-03-18 21:50:00,
2013-03-18 17:52:00,48.4,39.4,27.02,ENE,68,2.5,3.8,71,0.33,,---,26.08,VWS V14.01,2013-03-18 21:52:00,
2013-03-18 17:54:00,48.4,39.4,27.02,ENE,68,4.9,4.9,71,0.33,,---,26.08,VWS V14.01,2013-03-18 21:54:00,
2013-03-18 17:55:00,48.2,38.9,27.02,North,0,2.0,4.9,70,0.37,,---,26.12,VWS V14.01,2013-03-18 21:55:00,
2013-03-18 17:56:00,48.2,39.2,27.02,ENE,68,5.4,5.4,71,0.37,,---,26.12,VWS V14.01,2013-03-18 21:56:00,
2013-03-18 17:58:00,48.2,39.2,27.02,North,0,2.0,5.4,71,0.37,,---,26.12,VWS V14.01,2013-03-18 21:58:00,
2013-03-18 18:00:00,48.2,41.7,27.02,West,270,3.6,3.6,78,0.42,,---,26.17,VWS V14.01,2013-03-18 22:00:00,
2013-03-18 18:02:00,48.0,42.2,27.02,SSE,158,2.2,3.6,80,0.42,,---,26.17,VWS V14.01,2013-03-18 22:02:00,
2013-03-18 18:04:00,47.8,42.3,27.02,SE,135,2.0,3.4,81,0.45,,---,26.20,VWS V14.01,2013-03-18 22:04:00,
2013-03-18 18:05:00,47.8,42.6,27.02,SSE,158,3.6,3.8,82,0.45,,---,26.20,VWS V14.01,2013-03-18 22:05:00,
2013-03-18 18:06:00,47.8,42.9,27.02,SE,135,2.9,3.8,83,0.45,,---,26.20,VWS V14.01,2013-03-18 22:06:00,
2013-03-18 18:08:00,47.8,42.9,27.02,SSE,158,2.9,2.9,83,0.50,,---,26.25,VWS V14.01,2013-03-18 22:08:00,
2013-03-18 18:10:00,47.7,43.1,27.02,ESE,112,2.7,2.9,84,0.50,,---,26.25,VWS V14.01,2013-03-18 22:10:00,
2013-03-18 18:12:00,47.7,42.8,27.02,ESE,112,1.1,2.5,83,0.50,,---,26.25,VWS V14.01,2013-03-18 22:12:00,
2013-03-18 18:14:00,47.5,42.6,27.02,ENE,68,0.0,1.3,83,0.46,,---,26.25,VWS V14.01,2013-03-18 22:14:00,
2013-03-18 18:15:00,47.5,42.6,27.02,SSE,158,1.6,2.5,83,0.46,,---,26.25,VWS V14.01,2013-03-18 22:15:00,
2013-03-18 18:16:00,47.5,42.6,27.02,SW,225,1.1,2.5,83,0.46,,---,26.25,VWS V14.01,2013-03-18 22:16:00,
2013-03-18 18:18:00,47.5,42.9,27.02,WSW,248,0.9,2.2,84,0.46,,---,26.25,VWS V14.01,2013-03-18 22:18:00,
2013-03-18 18:20:00,47.5,42.9,27.02,SE,135,0.0,0.0,84,0.46,,---,26.25,VWS V14.01,2013-03-18 22:20:00,
2013-03-18 18:22:00,47.7,43.4,27.02,SSE,158,2.7,2.9,85,0.46,,---,26.25,VWS V14.01,2013-03-18 22:22:00,
2013-03-18 18:24:00,47.7,43.7,27.02,SSE,158,1.6,3.6,86,0.46,,---,26.25,VWS V14.01,2013-03-18 22:24:00,
2013-03-18 18:25:00,47.5,43.5,27.02,SSW,202,1.3,2.9,86,0.46,,---,26.25,VWS V14.01,2013-03-18 22:25:00,
2013-03-18 18:26:00,47.5,43.5,27.02,SSW,202,1.1,2.9,86,0.46,,---,26.25,VWS V14.01,2013-03-18 22:26:00,
2013-03-18 18:28:00,47.5,43.8,27.02,South,180,2.9,4.0,87,0.46,,---,26.25,VWS V14.01,2013-03-18 22:28:00,
2013-03-18 18:30:00,47.5,43.8,27.02,SSE,158,1.6,2.0,87,0.46,,---,26.25,VWS V14.01,2013-03-18 22:30:00,
2013-03-18 18:32:00,47.5,43.8,27.02,SSE,158,2.0,2.0,87,0.46,,---,26.25,VWS V14.01,2013-03-18 22:32:00,
2013-03-18 18:34:00,47.3,42.7,27.02,SSE,158,2.2,4.0,84,0.42,,---,26.25,VWS V14.01,2013-03-18 22:34:00,
2013-03-18 18:35:00,47.3,42.7,27.02,South,180,0.9,2.2,84,0.46,,---,26.29,VWS V14.01,2013-03-18 22:35:00,
2013-03-18 18:36:00,47.3,42.7,27.02,South,180,1.1,2.2,84,0.46,,---,26.29,VWS V14.01,2013-03-18 22:36:00,
2013-03-18 18:38:00,47.3,42.4,27.02,SSE,158,2.0,2.5,83,0.42,,---,26.29,VWS V14.01,2013-03-18 22:38:00,
2013-03-18 18:40:00,47.3,42.1,27.02,ESE,112,1.6,3.4,82,0.37,,---,26.29,VWS V14.01,2013-03-18 22:40:00,
2013-03-18 18:44:00,47.5,42.3,27.02,ESE,112,2.5,3.4,82,0.37,,---,26.29,VWS V14.01,2013-03-18 22:44:00,
2013-03-18 18:45:00,47.5,42.3,27.02,ESE,112,2.0,2.7,82,0.29,,---,26.29,VWS V14.01,2013-03-18 22:45:00,
2013-03-18 18:46:00,47.5,42.3,27.02,WSW,248,1.3,3.1,82,0.29,,---,26.29,VWS V14.01,2013-03-18 22:46:00,
2013-03-18 18:48:00,47.3,42.1,27.02,ESE,112,0.0,2.0,82,0.29,,---,26.33,VWS V14.01,2013-03-18 22:48:00,
2013-03-18 18:50:00,47.3,41.8,27.02,West,270,2.0,2.0,81,0.25,,---,26.33,VWS V14.01,2013-03-18 22:50:00,
2013-03-18 18:52:00,47.3,41.8,27.02,NW,315,0.9,2.2,81,0.25,,---,26.33,VWS V14.01,2013-03-18 22:52:00,
2013-03-18 18:54:00,47.3,41.8,27.02,East,90,0.0,0.9,81,0.25,,---,26.33,VWS V14.01,2013-03-18 22:54:00,
2013-03-18 18:55:00,47.3,41.5,27.02,East,90,0.9,1.1,80,0.25,,---,26.33,VWS V14.01,2013-03-18 22:55:00,
2013-03-18 18:56:00,47.3,41.5,27.02,ESE,112,1.6,1.6,80,0.25,,---,26.33,VWS V14.01,2013-03-18 22:56:00,
2013-03-18 18:58:00,47.3,41.8,27.02,ESE,112,2.5,2.9,81,0.21,,---,26.33,VWS V14.01,2013-03-18 22:58:00,
2013-03-18 19:00:00,47.3,42.4,27.02,SSE,158,2.0,2.5,83,0.16,,---,26.33,VWS V14.01,2013-03-18 23:00:00,
2013-03-18 19:02:00,47.3,42.4,27.02,SSE,158,2.0,2.5,83,0.16,,---,26.33,VWS V14.01,2013-03-18 23:02:00,
2013-03-18 19:05:00,47.3,42.7,27.02,SSE,158,0.0,2.0,84,0.20,,---,26.37,VWS V14.01,2013-03-18 23:05:00,
2013-03-18 19:06:00,47.1,42.2,27.02,SSE,158,0.0,2.0,83,0.20,,---,26.37,VWS V14.01,2013-03-18 23:06:00,
2013-03-18 19:08:00,47.1,42.2,27.02,West,270,0.0,0.0,83,0.17,,---,26.37,VWS V14.01,2013-03-18 23:08:00,
2013-03-18 19:10:00,47.1,42.2,27.02,WNW,292,0.0,0.0,83,0.12,,---,26.37,VWS V14.01,2013-03-18 23:10:00,
2013-03-18 19:12:00,47.1,42.2,27.02,WNW,292,0.0,0.0,83,0.12,,---,26.37,VWS V14.01,2013-03-18 23:12:00,
2013-03-18 19:14:00,46.9,41.7,27.02,WNW,292,0.0,0.0,82,0.12,,---,26.37,VWS V14.01,2013-03-18 23:14:00,
2013-03-18 19:15:00,46.9,41.7,27.02,WNW,292,0.0,0.0,82,0.12,,---,26.37,VWS V14.01,2013-03-18 23:15:00,
2013-03-18 19:16:00,46.9,41.7,27.02,WNW,292,0.0,0.0,82,0.12,,---,26.37,VWS V14.01,2013-03-18 23:16:00,
2013-03-18 19:18:00,46.9,41.7,27.02,WNW,292,0.0,0.0,82,0.12,,---,26.37,VWS V14.01,2013-03-18 23:18:00,
2013-03-18 19:20:00,46.9,41.4,27.02,WNW,292,0.0,0.0,81,0.12,,---,26.37,VWS V14.01,2013-03-18 23:20:00,
2013-03-18 19:22:00,46.9,41.7,27.02,WNW,292,0.9,1.1,82,0.12,,---,26.37,VWS V14.01,2013-03-18 23:22:00,
2013-03-18 19:24:00,46.9,41.4,27.02,WNW,292,0.0,0.9,81,0.12,,---,26.37,VWS V14.01,2013-03-18 23:24:00,
2013-03-18 19:25:00,46.9,41.4,27.02,WNW,292,0.0,0.0,81,0.12,,---,26.37,VWS V14.01,2013-03-18 23:25:00,
2013-03-18 19:26:00,46.9,41.4,27.02,WNW,292,0.0,0.0,81,0.12,,---,26.37,VWS V14.01,2013-03-18 23:26:00,
2013-03-18 19:28:00,46.9,41.4,27.02,WNW,292,0.0,0.0,81,0.12,,---,26.37,VWS V14.01,2013-03-18 23:28:00,
2013-03-18 19:30:00,46.9,41.7,27.02,WSW,248,2.0,2.2,82,0.12,,---,26.37,VWS V14.01,2013-03-18 23:30:00,
2013-03-18 19:32:00,47.1,42.8,26.99,WSW,248,1.3,2.2,85,0.12,,---,26.37,VWS V14.01,2013-03-18 23:32:00,
2013-03-18 19:34:00,47.1,43.5,26.99,WSW,248,1.6,2.0,87,0.12,,---,26.37,VWS V14.01,2013-03-18 23:34:00,
2013-03-18 19:35:00,46.9,43.3,26.99,WSW,248,0.9,1.6,87,0.12,,---,26.37,VWS V14.01,2013-03-18 23:35:00,
2013-03-18 19:36:00,46.9,43.3,26.99,WSW,248,0.0,1.6,87,0.16,,---,26.41,VWS V14.01,2013-03-18 23:36:00,
2013-03-18 19:38:00,46.9,43.3,26.99,WSW,248,0.0,0.0,87,0.12,,---,26.41,VWS V14.01,2013-03-18 23:38:00,
2013-03-18 19:40:00,47.1,43.8,26.99,WSW,248,1.3,2.0,88,0.12,,---,26.41,VWS V14.01,2013-03-18 23:40:00,
2013-03-18 19:42:00,47.1,44.0,26.99,WSW,248,1.6,2.0,89,0.12,,---,26.41,VWS V14.01,2013-03-18 23:42:00,
2013-03-18 19:44:00,46.9,43.9,26.99,South,180,1.1,1.6,89,0.12,,---,26.41,VWS V14.01,2013-03-18 23:44:00,
2013-03-18 19:45:00,46.9,43.9,26.99,ESE,112,1.3,1.6,89,0.12,,---,26.41,VWS V14.01,2013-03-18 23:45:00,
2013-03-18 19:46:00,46.9,43.9,26.99,ESE,112,1.3,1.6,89,0.12,,---,26.41,VWS V14.01,2013-03-18 23:46:00,
2013-03-18 19:48:00,46.8,43.4,26.99,ESE,112,0.0,1.3,88,0.12,,---,26.41,VWS V14.01,2013-03-18 23:48:00,
2013-03-18 19:50:00,46.8,43.1,26.99,ESE,112,0.0,0.9,87,0.08,,---,26.41,VWS V14.01,2013-03-18 23:50:00,
2013-03-18 19:52:00,46.8,43.1,26.99,ENE,68,0.0,0.9,87,0.08,,---,26.41,VWS V14.01,2013-03-18 23:52:00,
2013-03-18 19:54:00,46.8,43.1,26.99,NE,45,0.0,0.0,87,0.08,,---,26.41,VWS V14.01,2013-03-18 23:54:00,
2013-03-18 19:55:00,46.8,43.1,26.99,North,0,0.9,1.1,87,0.08,,---,26.41,VWS V14.01,2013-03-18 23:55:00,
2013-03-18 19:56:00,46.8,43.1,26.99,North,0,1.6,2.5,87,0.08,,---,26.41,VWS V14.01,2013-03-18 23:56:00,
2013-03-18 19:58:00,46.8,43.1,26.99,NE,45,1.6,2.5,87,0.08,,---,26.41,VWS V14.01,2013-03-18 23:58:00,
2013-03-18 20:00:00,46.8,43.1,26.99,ENE,68,3.4,3.4,87,0.08,,---,26.41,VWS V14.01,2013-03-19 00:00:00,
2013-03-18 20:02:00,46.8,42.8,26.99,East,90,2.2,3.4,86,0.08,,---,26.41,VWS V14.01,2013-03-19 00:02:00,
2013-03-18 20:04:00,46.6,42.3,26.99,ESE,112,3.1,4.9,85,0.08,,---,26.41,VWS V14.01,2013-03-19 00:04:00,
2013-03-18 20:05:00,46.8,42.5,26.99,WNW,292,1.6,3.4,85,0.04,,---,26.41,VWS V14.01,2013-03-19 00:05:00,
2013-03-18 20:06:00,46.8,42.5,26.99,NNE,22,1.6,3.4,85,0.09,,---,26.46,VWS V14.01,2013-03-19 00:06:00,
2013-03-18 20:08:00,46.8,42.2,26.99,East,90,3.4,3.4,84,0.09,,---,26.46,VWS V14.01,2013-03-19 00:08:00,
2013-03-18 20:10:00,46.8,41.9,26.99,ESE,112,2.9,2.9,83,0.09,,---,26.46,VWS V14.01,2013-03-19 00:10:00,
2013-03-18 20:12:00,46.8,41.9,26.99,East,90,4.3,4.3,83,0.09,,---,26.46,VWS V14.01,2013-03-19 00:12:00,
2013-03-18 20:14:00,46.8,41.9,26.99,ESE,112,7.4,7.4,83,0.09,,---,26.46,VWS V14.01,2013-03-19 00:14:00,
2013-03-18 20:15:00,46.8,41.9,26.99,East,90,6.0,7.4,83,0.09,,---,26.46,VWS V14.01,2013-03-19 00:15:00,
2013-03-18 20:16:00,46.8,41.9,26.99,SE,135,7.6,7.6,83,0.09,,---,26.46,VWS V14.01,2013-03-19 00:16:00,
2013-03-18 20:18:00,46.8,41.9,26.90,ENE,68,4.9,7.6,83,0.09,,---,26.46,VWS V14.01,2013-03-19 00:18:00,
2013-03-18 20:19:00,46.8,41.9,26.90,West,270,3.1,3.1,83,0.09,,---,26.46,VWS V14.01,2013-03-19 00:19:00,
2013-03-18 20:20:00,46.8,41.9,26.90,WSW,248,3.1,4.9,83,0.09,,---,26.46,VWS V14.01,2013-03-19 00:20:00,
2013-03-18 20:22:00,46.9,41.7,26.90,WNW,292,2.0,3.1,82,0.09,,---,26.46,VWS V14.01,2013-03-19 00:22:00,
2013-03-18 20:24:00,46.9,42.0,26.90,NW,315,3.4,4.0,83,0.09,,---,26.46,VWS V14.01,2013-03-19 00:24:00,
2013-03-18 20:26:00,46.9,42.1,26.90,West,270,4.7,4.7,83,0.09,,---,26.46,VWS V14.01,2013-03-19 00:26:00,
2013-03-18 20:28:00,47.1,41.9,26.90,WNW,292,3.1,6.5,82,0.09,,---,26.46,VWS V14.01,2013-03-19 00:28:00,
2013-03-18 20:29:00,47.1,41.9,26.90,NNW,338,2.0,2.0,82,0.09,,---,26.46,VWS V14.01,2013-03-19 00:29:00,
2013-03-18 20:30:00,47.1,41.9,26.90,NNW,338,1.6,3.1,82,0.09,,---,26.46,VWS V14.01,2013-03-19 00:30:00,
2013-03-18 20:32:00,47.1,41.9,26.96,NW,315,1.3,3.1,82,0.09,,---,26.46,VWS V14.01,2013-03-19 00:32:00,
2013-03-18 20:34:00,46.9,41.7,26.96,NNW,338,1.6,2.7,82,0.09,,---,26.46,VWS V14.01,2013-03-19 00:34:00,
2013-03-18 20:35:00,46.9,41.7,26.96,NNE,22,0.0,1.6,82,0.09,,---,26.46,VWS V14.01,2013-03-19 00:35:00,
2013-03-18 20:36:00,46.9,41.7,26.96,NNE,22,0.0,1.6,82,0.09,,---,26.46,VWS V14.01,2013-03-19 00:36:00,
2013-03-18 20:38:00,46.9,41.7,26.96,NW,315,0.0,0.0,82,0.05,,---,26.46,VWS V14.01,2013-03-19 00:38:00,
2013-03-18 20:40:00,46.9,41.7,26.96,SSW,202,2.2,2.2,82,0.05,,---,26.46,VWS V14.01,2013-03-19 00:40:00,
2013-03-18 20:42:00,46.8,41.9,26.96,WSW,248,2.5,2.5,83,0.05,,---,26.46,VWS V14.01,2013-03-19 00:42:00,
2013-03-18 20:44:00,46.8,42.2,26.96,WSW,248,2.9,2.9,84,0.05,,---,26.46,VWS V14.01,2013-03-19 00:44:00,
2013-03-18 20:45:00,46.8,42.2,26.96,WSW,248,4.0,4.3,84,0.05,,---,26.46,VWS V14.01,2013-03-19 00:45:00,
2013-03-18 20:46:00,46.8,42.2,26.96,WSW,248,3.4,4.3,84,0.05,,---,26.46,VWS V14.01,2013-03-19 00:46:00,
2013-03-18 20:48:00,46.8,42.5,26.93,West,270,3.1,3.4,85,0.05,,---,26.46,VWS V14.01,2013-03-19 00:48:00,
2013-03-18 20:50:00,46.8,42.5,26.93,WSW,248,2.0,3.1,85,0.05,,---,26.46,VWS V14.01,2013-03-19 00:50:00,
2013-03-18 20:52:00,46.8,42.5,26.93,WSW,248,2.5,3.1,85,0.05,,---,26.46,VWS V14.01,2013-03-19 00:52:00,
2013-03-18 20:54:00,46.8,42.5,26.93,SSW,202,1.6,2.7,85,0.05,,---,26.46,VWS V14.01,2013-03-19 00:54:00,
2013-03-18 20:55:00,46.8,42.5,26.93,SSW,202,1.6,1.6,85,0.05,,---,26.46,VWS V14.01,2013-03-19 00:55:00,
2013-03-18 20:56:00,46.8,42.5,26.93,SSW,202,1.6,1.6,85,0.05,,---,26.46,VWS V14.01,2013-03-19 00:56:00,
2013-03-18 20:58:00,46.6,42.0,26.93,South,180,0.0,1.6,84,0.05,,---,26.46,VWS V14.01,2013-03-19 00:58:00,
2013-03-18 21:00:00,46.6,42.0,26.93,East,90,0.0,0.0,84,0.05,,---,26.46,VWS V14.01,2013-03-19 01:00:00,
2013-03-18 21:02:00,46.4,41.5,26.96,WNW,292,1.6,1.6,83,0.05,,---,26.46,VWS V14.01,2013-03-19 01:02:00,
2013-03-18 21:04:00,46.4,41.5,26.96,ENE,68,0.0,2.2,83,0.05,,---,26.46,VWS V14.01,2013-03-19 01:04:00,
2013-03-18 21:05:00,46.2,41.3,26.96,NNW,338,3.4,3.4,83,0.05,,---,26.46,VWS V14.01,2013-03-19 01:05:00,
2013-03-18 21:06:00,46.2,41.3,26.96,NNW,338,3.1,3.4,83,0.05,,---,26.46,VWS V14.01,2013-03-19 01:06:00,
2013-03-18 21:08:00,46.2,41.3,26.96,East,90,1.1,3.1,83,0.00,,---,26.46,VWS V14.01,2013-03-19 01:08:00,
2013-03-18 21:10:00,46.0,40.9,26.96,WNW,292,0.0,0.0,82,0.00,,---,26.46,VWS V14.01,2013-03-19 01:10:00,
2013-03-18 21:12:00,45.9,40.7,26.96,NNW,338,1.3,1.6,82,0.00,,---,26.46,VWS V14.01,2013-03-19 01:12:00,
2013-03-18 21:14:00,45.7,40.5,26.96,WNW,292,0.0,1.3,82,0.00,,---,26.46,VWS V14.01,2013-03-19 01:14:00,
2013-03-18 21:15:00,45.7,40.5,26.96,East,90,1.3,1.3,82,0.00,,---,26.46,VWS V14.01,2013-03-19 01:15:00,
2013-03-18 21:16:00,45.7,40.5,26.96,East,90,0.0,1.3,82,0.00,,---,26.46,VWS V14.01,2013-03-19 01:16:00,
2013-03-18 21:18:00,45.7,40.8,26.96,WSW,248,1.1,2.0,83,0.00,,---,26.46,VWS V14.01,2013-03-19 01:18:00,
2013-03-18 21:20:00,45.5,40.7,26.96,WNW,292,1.6,2.0,83,0.00,,---,26.46,VWS V14.01,2013-03-19 01:20:00,
2013-03-18 21:22:00,45.3,40.5,26.96,NW,315,2.0,2.0,83,0.00,,---,26.46,VWS V14.01,2013-03-19 01:22:00,
2013-03-18 21:25:00,45.3,40.5,26.96,South,180,1.3,2.5,83,0.00,,---,26.46,VWS V14.01,2013-03-19 01:25:00,
2013-03-18 21:26:00,45.3,40.5,26.96,South,180,1.3,2.5,83,0.00,,---,26.46,VWS V14.01,2013-03-19 01:26:00,
2013-03-18 21:28:00,45.0,40.4,26.96,SW,225,1.1,2.5,84,0.00,,---,26.46,VWS V14.01,2013-03-19 01:28:00,
2013-03-18 21:30:00,44.8,39.9,26.96,East,90,0.0,1.6,83,0.00,,---,26.46,VWS V14.01,2013-03-19 01:30:00,
2013-03-18 21:32:00,44.8,39.9,26.96,East,90,0.0,1.6,83,0.00,,---,26.46,VWS V14.01,2013-03-19 01:32:00,
2013-03-18 21:34:00,44.6,39.8,26.96,East,90,0.0,0.0,83,0.00,,---,26.46,VWS V14.01,2013-03-19 01:34:00,
2013-03-18 21:35:00,44.6,39.8,26.96,WNW,292,0.0,0.0,83,0.00,,---,26.46,VWS V14.01,2013-03-19 01:35:00,
2013-03-18 21:36:00,44.6,39.8,26.96,NNW,338,1.1,1.1,83,0.00,,---,26.46,VWS V14.01,2013-03-19 01:36:00,
2013-03-18 21:38:00,44.4,39.6,26.96,NNW,338,0.0,1.6,83,0.00,,---,26.46,VWS V14.01,2013-03-19 01:38:00,
2013-03-18 21:40:00,44.2,39.7,26.96,WNW,292,2.0,2.0,84,0.00,,---,26.46,VWS V14.01,2013-03-19 01:40:00,
2013-03-18 21:42:00,44.2,39.7,26.96,West,270,1.3,2.5,84,0.00,,---,26.46,VWS V14.01,2013-03-19 01:42:00,
2013-03-18 21:44:00,44.2,40.3,26.96,SSW,202,1.6,2.5,86,0.00,,---,26.46,VWS V14.01,2013-03-19 01:44:00,
2013-03-18 21:45:00,44.1,40.2,26.96,South,180,0.0,1.6,86,0.00,,---,26.46,VWS V14.01,2013-03-19 01:45:00,
2013-03-18 21:46:00,44.1,40.2,26.96,West,270,0.0,1.6,86,0.00,,---,26.46,VWS V14.01,2013-03-19 01:46:00,
2013-03-18 21:48:00,44.1,40.2,26.96,WSW,248,2.5,2.5,86,0.00,,---,26.46,VWS V14.01,2013-03-19 01:48:00,
2013-03-18 21:50:00,44.1,40.5,26.96,WNW,292,1.3,1.6,87,0.00,,---,26.46,VWS V14.01,2013-03-19 01:50:00,
2013-03-18 21:52:00,43.9,40.3,26.96,WNW,292,0.0,1.6,87,0.00,,---,26.46,VWS V14.01,2013-03-19 01:52:00,
2013-03-18 21:55:00,44.1,40.7,26.96,WSW,248,4.0,4.0,88,0.00,,---,26.46,VWS V14.01,2013-03-19 01:55:00,
2013-03-18 21:56:00,44.1,40.7,26.96,WSW,248,3.6,4.0,88,0.00,,---,26.46,VWS V14.01,2013-03-19 01:56:00,
2013-03-18 21:58:00,44.1,41.6,26.96,WSW,248,0.9,3.6,91,0.00,,---,26.46,VWS V14.01,2013-03-19 01:58:00,
2013-03-18 22:00:00,44.1,41.6,26.96,WSW,248,0.0,0.0,91,0.00,,---,26.46,VWS V14.01,2013-03-19 02:00:00,
2013-03-18 22:02:00,44.1,41.6,26.96,West,270,2.9,3.4,91,0.00,,---,26.46,VWS V14.01,2013-03-19 02:02:00,
2013-03-18 22:04:00,44.1,41.9,26.96,SSW,202,1.3,2.9,92,0.00,,---,26.46,VWS V14.01,2013-03-19 02:04:00,
2013-03-18 22:05:00,44.1,41.9,26.96,South,180,1.3,1.6,92,0.00,,---,26.46,VWS V14.01,2013-03-19 02:05:00,
2013-03-18 22:06:00,44.1,41.9,26.96,SW,225,2.0,2.0,92,0.00,,---,26.46,VWS V14.01,2013-03-19 02:06:00,
2013-03-18 22:08:00,44.1,41.9,26.96,WSW,248,2.5,2.5,92,0.00,,---,26.46,VWS V14.01,2013-03-19 02:08:00,
2013-03-18 22:10:00,44.1,42.2,26.96,West,270,2.0,2.0,93,0.00,,---,26.46,VWS V14.01,2013-03-19 02:10:00,
2013-03-18 22:12:00,43.9,42.0,26.96,WNW,292,2.5,2.5,93,0.00,,---,26.46,VWS V14.01,2013-03-19 02:12:00,
2013-03-18 22:14:00,43.7,41.5,26.96,WNW,292,0.0,2.5,92,0.00,,---,26.46,VWS V14.01,2013-03-19 02:14:00,
2013-03-18 22:15:00,43.7,41.5,26.96,SSE,158,0.0,0.0,92,0.00,,---,26.46,VWS V14.01,2013-03-19 02:15:00,
2013-03-18 22:16:00,43.7,41.5,26.96,SSE,158,0.0,0.0,92,0.00,,---,26.46,VWS V14.01,2013-03-19 02:16:00,
2013-03-18 22:18:00,43.7,41.5,26.96,WNW,292,2.0,2.0,92,0.00,,---,26.46,VWS V14.01,2013-03-19 02:18:00,
2013-03-18 22:20:00,43.7,41.5,26.96,WNW,292,0.0,2.0,92,0.00,,---,26.46,VWS V14.01,2013-03-19 02:20:00,
2013-03-18 22:22:00,43.7,41.5,26.96,SSW,202,0.0,2.0,92,0.00,,---,26.46,VWS V14.01,2013-03-19 02:22:00,
2013-03-18 22:24:00,43.7,41.5,26.96,WSW,248,2.7,2.7,92,0.00,,---,26.46,VWS V14.01,2013-03-19 02:24:00,
2013-03-18 22:25:00,43.7,41.5,26.96,WSW,248,2.0,2.7,92,0.00,,---,26.46,VWS V14.01,2013-03-19 02:25:00,
2013-03-18 22:26:00,43.7,41.5,26.96,WSW,248,2.0,2.7,92,0.00,,---,26.46,VWS V14.01,2013-03-19 02:26:00,
2013-03-18 22:28:00,43.7,41.8,26.96,WSW,248,1.6,2.0,93,0.00,,---,26.46,VWS V14.01,2013-03-19 02:28:00,
2013-03-18 22:30:00,43.7,41.8,26.96,WSW,248,1.3,2.7,93,0.00,,---,26.46,VWS V14.01,2013-03-19 02:30:00,
2013-03-18 22:32:00,43.7,42.1,26.96,WSW,248,0.0,0.0,94,0.00,,---,26.46,VWS V14.01,2013-03-19 02:32:00,
2013-03-18 22:34:00,43.7,42.1,26.96,West,270,1.6,2.2,94,0.00,,---,26.46,VWS V14.01,2013-03-19 02:34:00,
2013-03-18 22:35:00,43.7,42.1,26.96,ESE,112,1.1,2.0,94,0.00,,---,26.46,VWS V14.01,2013-03-19 02:35:00,
2013-03-18 22:36:00,43.7,42.1,26.96,ESE,112,1.6,2.0,94,0.00,,---,26.46,VWS V14.01,2013-03-19 02:36:00,
2013-03-18 22:38:00,43.7,42.1,26.96,East,90,0.0,1.6,94,0.00,,---,26.46,VWS V14.01,2013-03-19 02:38:00,
2013-03-18 22:40:00,43.5,41.6,26.96,East,90,0.0,0.0,93,0.00,,---,26.46,VWS V14.01,2013-03-19 02:40:00,
2013-03-18 22:42:00,43.5,41.6,26.96,ESE,112,0.0,0.0,93,0.00,,---,26.46,VWS V14.01,2013-03-19 02:42:00,
2013-03-18 22:44:00,43.5,41.6,26.96,WSW,248,1.1,1.3,93,0.00,,---,26.46,VWS V14.01,2013-03-19 02:44:00,
2013-03-18 22:45:00,43.5,41.6,26.96,WSW,248,1.3,1.3,93,0.00,,---,26.46,VWS V14.01,2013-03-19 02:45:00,
2013-03-18 22:46:00,43.5,41.6,26.96,WSW,248,1.1,1.3,93,0.00,,---,26.46,VWS V14.01,2013-03-19 02:46:00,
2013-03-18 22:48:00,43.5,41.6,26.96,WSW,248,0.0,1.1,93,0.00,,---,26.46,VWS V14.01,2013-03-19 02:48:00,
2013-03-18 22:50:00,43.5,41.6,26.96,WNW,292,2.5,2.5,93,0.00,,---,26.46,VWS V14.01,2013-03-19 02:50:00,
2013-03-18 22:52:00,43.5,41.6,26.96,WNW,292,2.2,2.9,93,0.00,,---,26.46,VWS V14.01,2013-03-19 02:52:00,
2013-03-18 22:54:00,43.5,41.6,26.96,WNW,292,1.3,2.7,93,0.00,,---,26.46,VWS V14.01,2013-03-19 02:54:00,
2013-03-18 22:55:00,43.3,41.5,26.96,WSW,248,1.1,1.3,93,0.00,,---,26.46,VWS V14.01,2013-03-19 02:55:00,
2013-03-18 22:56:00,43.3,41.5,26.96,SW,225,1.1,1.3,93,0.00,,---,26.46,VWS V14.01,2013-03-19 02:56:00,
2013-03-18 22:58:00,43.3,41.5,26.96,WSW,248,1.1,1.1,93,0.00,,---,26.46,VWS V14.01,2013-03-19 02:58:00,
2013-03-18 23:00:00,43.3,41.5,26.96,WSW,248,0.0,0.0,93,0.00,,---,26.46,VWS V14.01,2013-03-19 03:00:00,
2013-03-18 23:02:00,43.3,41.5,26.96,WSW,248,1.1,1.1,93,0.00,,---,26.46,VWS V14.01,2013-03-19 03:02:00,
2013-03-18 23:04:00,43.3,41.5,26.96,NW,315,2.0,2.0,93,0.00,,---,26.46,VWS V14.01,2013-03-19 03:04:00,
2013-03-18 23:05:00,43.3,41.5,26.96,NW,315,2.0,2.0,93,0.00,,---,26.46,VWS V14.01,2013-03-19 03:05:00,
2013-03-18 23:06:00,43.3,41.5,26.96,WNW,292,2.5,2.5,93,0.00,,---,26.46,VWS V14.01,2013-03-19 03:06:00,
2013-03-18 23:08:00,43.2,41.3,26.96,WNW,292,1.3,2.5,93,0.00,,---,26.46,VWS V14.01,2013-03-19 03:08:00,
2013-03-18 23:10:00,43.2,41.3,26.96,WSW,248,1.3,2.0,93,0.00,,---,26.46,VWS V14.01,2013-03-19 03:10:00,
2013-03-18 23:12:00,43.2,41.3,26.96,SE,135,0.0,2.0,93,0.00,,---,26.46,VWS V14.01,2013-03-19 03:12:00,
2013-03-18 23:14:00,43.0,41.1,26.96,SE,135,0.0,0.0,93,0.00,,---,26.46,VWS V14.01,2013-03-19 03:14:00,
2013-03-18 23:15:00,43.0,41.1,26.96,SE,135,0.0,0.0,93,0.00,,---,26.46,VWS V14.01,2013-03-19 03:15:00,
2013-03-18 23:16:00,43.0,41.1,26.96,SE,135,0.0,0.0,93,0.00,,---,26.46,VWS V14.01,2013-03-19 03:16:00,
2013-03-18 23:18:00,43.0,41.1,26.93,NE,45,0.0,0.0,93,0.00,,---,26.46,VWS V14.01,2013-03-19 03:18:00,
2013-03-18 23:20:00,42.8,40.6,26.93,NE,45,0.0,0.0,92,0.00,,---,26.46,VWS V14.01,2013-03-19 03:20:00,
2013-03-18 23:22:00,42.6,40.5,26.93,NE,45,1.3,2.5,92,0.00,,---,26.46,VWS V14.01,2013-03-19 03:22:00,
2013-03-18 23:24:00,42.6,40.5,26.93,South,180,0.0,1.3,92,0.00,,---,26.46,VWS V14.01,2013-03-19 03:24:00,
2013-03-18 23:25:00,42.4,40.0,26.93,South,180,0.9,1.6,91,0.00,,---,26.46,VWS V14.01,2013-03-19 03:25:00,
2013-03-18 23:26:00,42.4,40.0,26.93,South,180,0.0,1.6,91,0.00,,---,26.46,VWS V14.01,2013-03-19 03:26:00,
2013-03-18 23:28:00,42.4,40.0,26.93,South,180,0.0,1.1,91,0.00,,---,26.46,VWS V14.01,2013-03-19 03:28:00,
2013-03-18 23:30:00,42.3,39.8,26.93,WNW,292,1.3,1.3,91,0.00,,---,26.46,VWS V14.01,2013-03-19 03:30:00,
2013-03-18 23:32:00,42.1,39.4,26.96,WNW,292,1.3,2.2,90,0.00,,---,26.46,VWS V14.01,2013-03-19 03:32:00,
2013-03-18 23:34:00,42.1,39.4,26.96,WNW,292,1.1,1.6,90,0.00,,---,26.46,VWS V14.01,2013-03-19 03:34:00,
2013-03-18 23:35:00,42.1,39.4,26.96,WNW,292,1.1,1.1,90,0.00,,---,26.46,VWS V14.01,2013-03-19 03:35:00,
2013-03-18 23:36:00,42.1,39.4,26.96,WNW,292,0.9,1.1,90,0.00,,---,26.46,VWS V14.01,2013-03-19 03:36:00,
2013-03-18 23:38:00,41.9,39.2,26.96,WNW,292,0.0,1.3,90,0.00,,---,26.46,VWS V14.01,2013-03-19 03:38:00,
2013-03-18 23:40:00,41.9,39.2,26.96,WNW,292,0.0,0.0,90,0.00,,---,26.46,VWS V14.01,2013-03-19 03:40:00,
2013-03-18 23:42:00,41.7,39.0,26.96,WSW,248,1.6,1.6,90,0.00,,---,26.46,VWS V14.01,2013-03-19 03:42:00,
2013-03-18 23:44:00,41.7,39.0,26.96,West,270,1.6,2.0,90,0.00,,---,26.46,VWS V14.01,2013-03-19 03:44:00,
2013-03-18 23:45:00,41.7,39.0,26.96,West,270,1.1,1.6,90,0.00,,---,26.46,VWS V14.01,2013-03-19 03:45:00,
2013-03-18 23:46:00,41.7,39.0,26.96,West,270,1.1,1.6,90,0.00,,---,26.46,VWS V14.01,2013-03-19 03:46:00,
2013-03-18 23:48:00,41.7,39.0,26.96,West,270,0.0,1.1,90,0.00,,---,26.46,VWS V14.01,2013-03-19 03:48:00,
2013-03-18 23:50:00,41.5,38.8,26.96,WNW,292,0.0,0.0,90,0.00,,---,26.46,VWS V14.01,2013-03-19 03:50:00,
2013-03-18 23:52:00,41.5,38.8,26.96,WNW,292,1.6,1.6,90,0.00,,---,26.46,VWS V14.01,2013-03-19 03:52:00,
2013-03-18 23:54:00,41.5,38.8,26.96,WNW,292,1.1,1.6,90,0.00,,---,26.46,VWS V14.01,2013-03-19 03:54:00,
2013-03-18 23:55:00,41.5,38.8,26.96,WNW,292,0.9,1.3,90,0.00,,---,26.46,VWS V14.01,2013-03-19 03:55:00,
2013-03-18 23:56:00,41.5,38.8,26.96,WNW,292,1.1,1.3,90,0.00,,---,26.46,VWS V14.01,2013-03-19 03:56:00,
2013-03-18 23:58:00,41.5,39.1,26.96,WNW,292,0.0,1.1,91,0.00,,---,26.46,VWS V14.01,2013-03-19 03:58:00,